KLM861 EHAM-RJAA
Flight info
| Callsign | KLM861 |
|---|---|
| Flight time | N/A |
| Altitude | 33000 |
| Route | EDUPO Z739 MISGO DCT DOJOH DCT DODEN DCT NEGIX DCT DINKU/N0477F310 L603 BESNI/N0479F330 L605 ESEGA DCT STEIN DCT TEGRI DCT DINRO DCT UDROS UM859 KARDE UN644 ROLIN N644 ODILI DCT BARAD/N0483F350 M747 SUBUT T916 BALUN/K0878F350 T916 PIGAL M610 RULAD/K0861S1070 A343 GOBOK/K0865S1130 A343 POSOT B215 FKG W188 LIKMI W270 DKO W69 HUR B339 LADIX/K0870S1190 W34 VAPGU W100 ORAVA W201 UNSEK A326 DONVO G597 AGAVO/N0473F390 Y644 EGOBA Y697 LANAT Y51 SAMON Y517 ESKAS Y303 ENTAK Y30 SWAMP |
| Aircraft | B772/H-SDE2E3FGHIJ5LORVWXY/AA6BA4 |
Departure
| Time | 2026-04-13 12:12 |
|---|---|
| Airport | Amsterdam Airport Schiphol (EHAM) |
Arrival
| Time | N/A |
|---|---|
| Airport | Narita International Airport (RJAA) |
| Time | Latitude | Longitude | Altitude | Speed | Heading |
|---|---|---|---|---|---|
| 2026-04-13 11:04 | 52.31148 | 4.76516 | 6 ft | 0 kts | 123° |
| 2026-04-13 11:52 | 52.31149 | 4.76512 | 5 ft | 1 kts | 123° |
| 2026-04-13 11:53 | 52.31157 | 4.76493 | 5 ft | 2 kts | 123° |
| 2026-04-13 11:53 | 52.31166 | 4.76472 | 5 ft | 2 kts | 131° |
| 2026-04-13 11:53 | 52.31177 | 4.76456 | 5 ft | 2 kts | 145° |
| 2026-04-13 11:53 | 52.31189 | 4.76443 | 5 ft | 2 kts | 156° |
| 2026-04-13 11:54 | 52.31204 | 4.76435 | 5 ft | 2 kts | 168° |
| 2026-04-13 11:54 | 52.31218 | 4.76433 | 5 ft | 2 kts | 180° |
| 2026-04-13 11:54 | 52.31233 | 4.76434 | 5 ft | 2 kts | 191° |
| 2026-04-13 11:54 | 52.31248 | 4.76440 | 5 ft | 2 kts | 197° |
| 2026-04-13 11:55 | 52.31262 | 4.76448 | 5 ft | 2 kts | 203° |
| 2026-04-13 11:55 | 52.31276 | 4.76459 | 5 ft | 2 kts | 210° |
| 2026-04-13 11:55 | 52.31288 | 4.76471 | 5 ft | 2 kts | 214° |
| 2026-04-13 11:55 | 52.31300 | 4.76485 | 5 ft | 2 kts | 214° |
| 2026-04-13 11:56 | 52.31313 | 4.76499 | 5 ft | 2 kts | 213° |
| 2026-04-13 11:56 | 52.31325 | 4.76512 | 5 ft | 2 kts | 214° |
| 2026-04-13 11:56 | 52.31338 | 4.76525 | 5 ft | 2 kts | 214° |
| 2026-04-13 11:56 | 52.31350 | 4.76539 | 5 ft | 2 kts | 214° |
| 2026-04-13 11:57 | 52.31363 | 4.76553 | 5 ft | 2 kts | 214° |
| 2026-04-13 11:57 | 52.31376 | 4.76566 | 5 ft | 2 kts | 214° |
| 2026-04-13 11:57 | 52.31381 | 4.76573 | 5 ft | 0 kts | 213° |
| 2026-04-13 11:57 | 52.31381 | 4.76572 | 5 ft | 0 kts | 213° |
| 2026-04-13 11:59 | 52.31365 | 4.76555 | 5 ft | 5 kts | 214° |
| 2026-04-13 12:00 | 52.31343 | 4.76482 | 5 ft | 8 kts | 275° |
| 2026-04-13 12:00 | 52.31385 | 4.76415 | 5 ft | 9 kts | 340° |
| 2026-04-13 12:00 | 52.31446 | 4.76383 | 5 ft | 9 kts | 342° |
| 2026-04-13 12:00 | 52.31502 | 4.76339 | 5 ft | 9 kts | 320° |
| 2026-04-13 12:01 | 52.31534 | 4.76244 | 5 ft | 11 kts | 281° |
| 2026-04-13 12:01 | 52.31534 | 4.76099 | 5 ft | 14 kts | 267° |
| 2026-04-13 12:01 | 52.31528 | 4.75916 | 5 ft | 17 kts | 266° |
| 2026-04-13 12:01 | 52.31520 | 4.75701 | 5 ft | 20 kts | 267° |
| 2026-04-13 12:02 | 52.31513 | 4.75470 | 5 ft | 20 kts | 267° |
| 2026-04-13 12:02 | 52.31505 | 4.75249 | 5 ft | 18 kts | 267° |
| 2026-04-13 12:02 | 52.31498 | 4.75042 | 5 ft | 17 kts | 267° |
| 2026-04-13 12:02 | 52.31492 | 4.74844 | 5 ft | 17 kts | 267° |
| 2026-04-13 12:03 | 52.31485 | 4.74653 | 5 ft | 16 kts | 267° |
| 2026-04-13 12:03 | 52.31479 | 4.74473 | 5 ft | 15 kts | 266° |
| 2026-04-13 12:03 | 52.31482 | 4.74323 | 5 ft | 10 kts | 299° |
| 2026-04-13 12:03 | 52.31540 | 4.74292 | 5 ft | 9 kts | 4° |
| 2026-04-13 12:04 | 52.31605 | 4.74299 | 5 ft | 9 kts | 4° |
| 2026-04-13 12:04 | 52.31678 | 4.74307 | 5 ft | 11 kts | 4° |
| 2026-04-13 12:04 | 52.31761 | 4.74315 | 5 ft | 13 kts | 3° |
| 2026-04-13 12:04 | 52.31862 | 4.74323 | 5 ft | 15 kts | 3° |
| 2026-04-13 12:05 | 52.31969 | 4.74332 | 5 ft | 14 kts | 2° |
| 2026-04-13 12:05 | 52.32027 | 4.74257 | 5 ft | 11 kts | 282° |
| 2026-04-13 12:05 | 52.32034 | 4.74129 | 5 ft | 11 kts | 273° |
| 2026-04-13 12:05 | 52.32040 | 4.73973 | 5 ft | 17 kts | 274° |
| 2026-04-13 12:06 | 52.32047 | 4.73755 | 5 ft | 20 kts | 273° |
| 2026-04-13 12:06 | 52.32055 | 4.73512 | 5 ft | 19 kts | 273° |
| 2026-04-13 12:06 | 52.32108 | 4.73324 | 5 ft | 18 kts | 317° |
| 2026-04-13 12:06 | 52.32203 | 4.73189 | 5 ft | 18 kts | 319° |
| 2026-04-13 12:07 | 52.32309 | 4.73040 | 5 ft | 22 kts | 319° |
| 2026-04-13 12:07 | 52.32435 | 4.72863 | 5 ft | 25 kts | 319° |
| 2026-04-13 12:07 | 52.32564 | 4.72682 | 5 ft | 24 kts | 319° |
| 2026-04-13 12:07 | 52.32684 | 4.72501 | 5 ft | 22 kts | 313° |
| 2026-04-13 12:08 | 52.32786 | 4.72315 | 5 ft | 21 kts | 311° |
| 2026-04-13 12:08 | 52.32881 | 4.72137 | 5 ft | 20 kts | 311° |
| 2026-04-13 12:08 | 52.32972 | 4.71970 | 5 ft | 19 kts | 311° |
| 2026-04-13 12:08 | 52.33057 | 4.71812 | 5 ft | 18 kts | 311° |
| 2026-04-13 12:09 | 52.33136 | 4.71661 | 5 ft | 15 kts | 302° |
| 2026-04-13 12:09 | 52.33139 | 4.71509 | 5 ft | 13 kts | 242° |
| 2026-04-13 12:09 | 52.33073 | 4.71402 | 5 ft | 13 kts | 222° |
| 2026-04-13 12:09 | 52.33006 | 4.71304 | 5 ft | 12 kts | 221° |
| 2026-04-13 12:10 | 52.32938 | 4.71209 | 5 ft | 12 kts | 221° |
| 2026-04-13 12:10 | 52.32877 | 4.71109 | 5 ft | 12 kts | 236° |
| 2026-04-13 12:10 | 52.32861 | 4.70978 | 5 ft | 12 kts | 274° |
| 2026-04-13 12:10 | 52.32881 | 4.70890 | 5 ft | 4 kts | 341° |
| 2026-04-13 12:11 | 52.32921 | 4.70887 | 5 ft | 9 kts | 3° |
| 2026-04-13 12:11 | 52.33149 | 4.70908 | 5 ft | 63 kts | 3° |
| 2026-04-13 12:11 | 52.33808 | 4.70967 | 5 ft | 124 kts | 3° |
| 2026-04-13 12:11 | 52.34846 | 4.71061 | 6 ft | 175 kts | 3° |
| 2026-04-13 12:12 | 52.36161 | 4.71166 | 270 ft | 196 kts | 4° |
| 2026-04-13 12:12 | 52.37548 | 4.71295 | 934 ft | 203 kts | 6° |
| 2026-04-13 12:12 | 52.38912 | 4.71477 | 1585 ft | 200 kts | 6° |
| 2026-04-13 12:12 | 52.40354 | 4.71617 | 1786 ft | 216 kts | 5° |
| 2026-04-13 12:13 | 52.41888 | 4.71871 | 2003 ft | 229 kts | 17° |
| 2026-04-13 12:13 | 52.43393 | 4.72962 | 2193 ft | 243 kts | 30° |
| 2026-04-13 12:13 | 52.44882 | 4.74345 | 2669 ft | 248 kts | 31° |
| 2026-04-13 12:13 | 52.46386 | 4.75774 | 3124 ft | 253 kts | 37° |
| 2026-04-13 12:14 | 52.47574 | 4.77867 | 3615 ft | 254 kts | 62° |
| 2026-04-13 12:14 | 52.48109 | 4.80597 | 4125 ft | 255 kts | 81° |
| 2026-04-13 12:14 | 52.48322 | 4.83473 | 4702 ft | 255 kts | 84° |
| 2026-04-13 12:14 | 52.48479 | 4.86365 | 5187 ft | 258 kts | 85° |
| 2026-04-13 12:15 | 52.48489 | 4.89290 | 5676 ft | 260 kts | 101° |
| 2026-04-13 12:15 | 52.47797 | 4.92031 | 6119 ft | 263 kts | 126° |
| 2026-04-13 12:15 | 52.46486 | 4.94104 | 6735 ft | 263 kts | 141° |
| 2026-04-13 12:15 | 52.45010 | 4.95887 | 7155 ft | 268 kts | 143° |
| 2026-04-13 12:16 | 52.43481 | 4.97656 | 7652 ft | 269 kts | 143° |
| 2026-04-13 12:16 | 52.41948 | 4.99428 | 8134 ft | 271 kts | 143° |
| 2026-04-13 12:16 | 52.40414 | 5.01202 | 8599 ft | 273 kts | 143° |
| 2026-04-13 12:16 | 52.38866 | 5.02992 | 9087 ft | 274 kts | 143° |
| 2026-04-13 12:17 | 52.37303 | 5.04800 | 9543 ft | 276 kts | 143° |
| 2026-04-13 12:17 | 52.35736 | 5.06611 | 10001 ft | 277 kts | 143° |
| 2026-04-13 12:17 | 52.34152 | 5.08448 | 10260 ft | 287 kts | 141° |
| 2026-04-13 12:17 | 52.32634 | 5.10711 | 10283 ft | 303 kts | 131° |
| 2026-04-13 12:18 | 52.31189 | 5.13347 | 10332 ft | 320 kts | 130° |
| 2026-04-13 12:18 | 52.29691 | 5.16097 | 10423 ft | 335 kts | 131° |
| 2026-04-13 12:18 | 52.28101 | 5.19000 | 10526 ft | 349 kts | 131° |
| 2026-04-13 12:18 | 52.26465 | 5.21973 | 10874 ft | 356 kts | 131° |
| 2026-04-13 12:19 | 52.24807 | 5.24988 | 11405 ft | 357 kts | 130° |
| 2026-04-13 12:19 | 52.23304 | 5.28225 | 11905 ft | 359 kts | 126° |
| 2026-04-13 12:19 | 52.21862 | 5.31553 | 12397 ft | 361 kts | 126° |
| 2026-04-13 12:19 | 52.20413 | 5.34903 | 12842 ft | 364 kts | 126° |
| 2026-04-13 12:20 | 52.18946 | 5.38287 | 13309 ft | 366 kts | 127° |
| 2026-04-13 12:20 | 52.17481 | 5.41657 | 13783 ft | 368 kts | 127° |
| 2026-04-13 12:20 | 52.15990 | 5.45080 | 14215 ft | 371 kts | 127° |
| 2026-04-13 12:20 | 52.14510 | 5.48474 | 14608 ft | 375 kts | 128° |
| 2026-04-13 12:21 | 52.12989 | 5.51954 | 15083 ft | 376 kts | 128° |
| 2026-04-13 12:21 | 52.11474 | 5.55419 | 15518 ft | 379 kts | 128° |
| 2026-04-13 12:21 | 52.09951 | 5.58894 | 15904 ft | 382 kts | 128° |
| 2026-04-13 12:21 | 52.08409 | 5.62410 | 16305 ft | 385 kts | 128° |
| 2026-04-13 12:22 | 52.06839 | 5.65985 | 16703 ft | 387 kts | 129° |
| 2026-04-13 12:22 | 52.05167 | 5.69408 | 17074 ft | 388 kts | 134° |
| 2026-04-13 12:22 | 52.03405 | 5.72706 | 17478 ft | 390 kts | 135° |
| 2026-04-13 12:22 | 52.01609 | 5.76053 | 17871 ft | 392 kts | 135° |
| 2026-04-13 12:23 | 51.99815 | 5.79392 | 18213 ft | 395 kts | 135° |
| 2026-04-13 12:23 | 51.98010 | 5.82747 | 18585 ft | 398 kts | 135° |
| 2026-04-13 12:23 | 51.96195 | 5.86128 | 18988 ft | 399 kts | 135° |
| 2026-04-13 12:23 | 51.94378 | 5.89522 | 19364 ft | 401 kts | 135° |
| 2026-04-13 12:24 | 51.92540 | 5.92951 | 19736 ft | 403 kts | 135° |
| 2026-04-13 12:24 | 51.90713 | 5.96355 | 20078 ft | 405 kts | 135° |
| 2026-04-13 12:24 | 51.88850 | 5.99821 | 20438 ft | 407 kts | 135° |
| 2026-04-13 12:24 | 51.86997 | 6.03262 | 20852 ft | 408 kts | 135° |
| 2026-04-13 12:25 | 51.85128 | 6.06730 | 21246 ft | 409 kts | 135° |
| 2026-04-13 12:25 | 51.83255 | 6.10178 | 21570 ft | 411 kts | 135° |
| 2026-04-13 12:25 | 51.81357 | 6.13661 | 21887 ft | 413 kts | 135° |
| 2026-04-13 12:25 | 51.79467 | 6.17126 | 22243 ft | 414 kts | 136° |
| 2026-04-13 12:26 | 51.77556 | 6.20626 | 22578 ft | 416 kts | 136° |
| 2026-04-13 12:26 | 51.75644 | 6.24121 | 22876 ft | 418 kts | 136° |
| 2026-04-13 12:26 | 51.73726 | 6.27621 | 23186 ft | 420 kts | 136° |
| 2026-04-13 12:26 | 51.71801 | 6.31128 | 23504 ft | 421 kts | 136° |
| 2026-04-13 12:27 | 51.69849 | 6.34683 | 23839 ft | 422 kts | 136° |
| 2026-04-13 12:27 | 51.65924 | 6.41809 | 24377 ft | 426 kts | 136° |
| 2026-04-13 12:27 | 51.63961 | 6.45366 | 24626 ft | 429 kts | 136° |
| 2026-04-13 12:28 | 51.61994 | 6.48927 | 24886 ft | 431 kts | 136° |
| 2026-04-13 12:28 | 51.59996 | 6.52541 | 25207 ft | 431 kts | 136° |
| 2026-04-13 12:28 | 51.58006 | 6.56136 | 25473 ft | 433 kts | 136° |
| 2026-04-13 12:28 | 51.55980 | 6.59789 | 25691 ft | 436 kts | 136° |
| 2026-04-13 12:29 | 51.53984 | 6.63382 | 25925 ft | 438 kts | 136° |
| 2026-04-13 12:29 | 51.51955 | 6.67030 | 26194 ft | 439 kts | 136° |
| 2026-04-13 12:29 | 51.49927 | 6.70673 | 26476 ft | 440 kts | 136° |
| 2026-04-13 12:29 | 51.47871 | 6.74360 | 26747 ft | 441 kts | 136° |
| 2026-04-13 12:30 | 51.45828 | 6.78017 | 27017 ft | 441 kts | 136° |
| 2026-04-13 12:30 | 51.43793 | 6.81654 | 27217 ft | 444 kts | 136° |
| 2026-04-13 12:30 | 51.41733 | 6.85331 | 27377 ft | 447 kts | 136° |
| 2026-04-13 12:30 | 51.39637 | 6.89044 | 27575 ft | 448 kts | 138° |
| 2026-04-13 12:31 | 51.37410 | 6.92552 | 27822 ft | 447 kts | 140° |
| 2026-04-13 12:31 | 51.35159 | 6.95999 | 28034 ft | 449 kts | 140° |
| 2026-04-13 12:31 | 51.32919 | 6.99433 | 28271 ft | 450 kts | 140° |
| 2026-04-13 12:31 | 51.30650 | 7.02920 | 28504 ft | 451 kts | 140° |
| 2026-04-13 12:32 | 51.28407 | 7.06369 | 28735 ft | 452 kts | 140° |
| 2026-04-13 12:32 | 51.26137 | 7.09861 | 28911 ft | 454 kts | 140° |
| 2026-04-13 12:32 | 51.23888 | 7.13321 | 29069 ft | 456 kts | 140° |
| 2026-04-13 12:32 | 51.21585 | 7.16861 | 29283 ft | 457 kts | 140° |
| 2026-04-13 12:33 | 51.19307 | 7.20363 | 29548 ft | 456 kts | 140° |
| 2026-04-13 12:33 | 51.17013 | 7.23884 | 29871 ft | 455 kts | 140° |
| 2026-04-13 12:33 | 51.14743 | 7.27365 | 30151 ft | 453 kts | 140° |
| 2026-04-13 12:33 | 51.12489 | 7.30816 | 30434 ft | 452 kts | 140° |
| 2026-04-13 12:34 | 51.10232 | 7.34269 | 30753 ft | 451 kts | 140° |
| 2026-04-13 12:34 | 51.07978 | 7.37711 | 31031 ft | 450 kts | 140° |
| 2026-04-13 12:34 | 51.05725 | 7.41147 | 31240 ft | 450 kts | 140° |
| 2026-04-13 12:34 | 51.03463 | 7.44593 | 31447 ft | 450 kts | 140° |
| 2026-04-13 12:35 | 51.01192 | 7.48046 | 31667 ft | 451 kts | 140° |
| 2026-04-13 12:35 | 50.98938 | 7.51470 | 31943 ft | 449 kts | 140° |
| 2026-04-13 12:35 | 50.96678 | 7.54900 | 32235 ft | 448 kts | 140° |
| 2026-04-13 12:35 | 50.94415 | 7.58326 | 32466 ft | 447 kts | 140° |
| 2026-04-13 12:36 | 50.92178 | 7.61710 | 32692 ft | 447 kts | 140° |
| 2026-04-13 12:36 | 50.89959 | 7.65062 | 32926 ft | 446 kts | 141° |
| 2026-04-13 12:36 | 50.85423 | 7.71900 | 32942 ft | 445 kts | 140° |
| 2026-04-13 12:37 | 50.80958 | 7.78595 | 32938 ft | 444 kts | 141° |
| 2026-04-13 12:37 | 50.76477 | 7.85267 | 32935 ft | 445 kts | 141° |
| 2026-04-13 12:38 | 50.71940 | 7.92006 | 32930 ft | 445 kts | 141° |
| 2026-04-13 12:38 | 50.67464 | 7.98639 | 32930 ft | 445 kts | 141° |
| 2026-04-13 12:39 | 50.62951 | 8.05306 | 32932 ft | 446 kts | 140° |
| 2026-04-13 12:39 | 50.58666 | 8.12363 | 32939 ft | 449 kts | 133° |
| 2026-04-13 12:40 | 50.54749 | 8.20083 | 32928 ft | 449 kts | 133° |
| 2026-04-13 12:40 | 50.50885 | 8.27676 | 32925 ft | 449 kts | 132° |
| 2026-04-13 12:41 | 50.46959 | 8.35376 | 32929 ft | 448 kts | 133° |
| 2026-04-13 12:41 | 50.43090 | 8.42934 | 32915 ft | 448 kts | 132° |
| 2026-04-13 12:42 | 50.39173 | 8.50560 | 32907 ft | 449 kts | 132° |
| 2026-04-13 12:42 | 50.35127 | 8.57940 | 32911 ft | 446 kts | 136° |
| 2026-04-13 12:43 | 50.30849 | 8.65007 | 32903 ft | 446 kts | 136° |
| 2026-04-13 12:43 | 50.26639 | 8.71983 | 32911 ft | 446 kts | 137° |
| 2026-04-13 12:44 | 50.22385 | 8.79043 | 32915 ft | 446 kts | 136° |
| 2026-04-13 12:44 | 50.18133 | 8.86095 | 32907 ft | 445 kts | 136° |
| 2026-04-13 12:45 | 50.13897 | 8.93108 | 32905 ft | 446 kts | 136° |
| 2026-04-13 12:45 | 50.09653 | 9.00119 | 32904 ft | 445 kts | 136° |
| 2026-04-13 12:46 | 50.05391 | 9.07143 | 32902 ft | 446 kts | 136° |
| 2026-04-13 12:46 | 50.01126 | 9.14152 | 32896 ft | 446 kts | 136° |
| 2026-04-13 12:47 | 49.96848 | 9.21164 | 32893 ft | 447 kts | 136° |
| 2026-04-13 12:47 | 49.92575 | 9.28149 | 32889 ft | 446 kts | 136° |
| 2026-04-13 12:48 | 49.88319 | 9.35086 | 32896 ft | 447 kts | 136° |
| 2026-04-13 12:48 | 49.84077 | 9.41984 | 32892 ft | 447 kts | 136° |
| 2026-04-13 12:49 | 49.79779 | 9.48953 | 32888 ft | 447 kts | 136° |
| 2026-04-13 12:49 | 49.75464 | 9.55930 | 32890 ft | 447 kts | 135° |
| 2026-04-13 12:50 | 49.71140 | 9.62902 | 32888 ft | 447 kts | 135° |
| 2026-04-13 12:50 | 49.66859 | 9.69786 | 32891 ft | 448 kts | 136° |
| 2026-04-13 12:51 | 49.62537 | 9.76717 | 32889 ft | 447 kts | 136° |
| 2026-04-13 12:51 | 49.58225 | 9.83615 | 32887 ft | 447 kts | 136° |
| 2026-04-13 12:52 | 49.53913 | 9.90492 | 32886 ft | 447 kts | 136° |
| 2026-04-13 12:52 | 49.49564 | 9.97409 | 32887 ft | 448 kts | 136° |
| 2026-04-13 12:53 | 49.45207 | 10.04322 | 32885 ft | 447 kts | 136° |
| 2026-04-13 12:53 | 49.40881 | 10.11166 | 32882 ft | 449 kts | 136° |
| 2026-04-13 12:54 | 49.36529 | 10.18033 | 32884 ft | 447 kts | 136° |
| 2026-04-13 12:54 | 49.32196 | 10.24851 | 32875 ft | 448 kts | 136° |
| 2026-04-13 12:55 | 49.27859 | 10.31657 | 32871 ft | 447 kts | 136° |
| 2026-04-13 12:55 | 49.23544 | 10.38410 | 32871 ft | 447 kts | 136° |
| 2026-04-13 12:56 | 49.19106 | 10.45067 | 32861 ft | 448 kts | 137° |
| 2026-04-13 12:56 | 49.14646 | 10.51673 | 32862 ft | 446 kts | 137° |
| 2026-04-13 12:57 | 49.10183 | 10.58278 | 32856 ft | 447 kts | 137° |
| 2026-04-13 12:57 | 49.05696 | 10.64910 | 32846 ft | 447 kts | 137° |
| 2026-04-13 12:58 | 49.01256 | 10.71450 | 32843 ft | 447 kts | 137° |
| 2026-04-13 12:58 | 48.96782 | 10.78018 | 32838 ft | 447 kts | 137° |
| 2026-04-13 12:59 | 48.92281 | 10.84610 | 32840 ft | 446 kts | 137° |
| 2026-04-13 12:59 | 48.87834 | 10.91120 | 32848 ft | 448 kts | 137° |
| 2026-04-13 13:00 | 48.83315 | 10.97724 | 32851 ft | 446 kts | 137° |
| 2026-04-13 13:00 | 48.78842 | 11.04241 | 32846 ft | 447 kts | 137° |
| 2026-04-13 13:01 | 48.74351 | 11.10758 | 32848 ft | 446 kts | 137° |
| 2026-04-13 13:01 | 48.69869 | 11.17233 | 32850 ft | 446 kts | 137° |
| 2026-04-13 13:02 | 48.65665 | 11.24089 | 32841 ft | 447 kts | 127° |
| 2026-04-13 13:02 | 48.62791 | 11.32559 | 32846 ft | 454 kts | 111° |
| 2026-04-13 13:03 | 48.60849 | 11.41685 | 32846 ft | 454 kts | 110° |
| 2026-04-13 13:03 | 48.58933 | 11.50752 | 32837 ft | 453 kts | 110° |
| 2026-04-13 13:04 | 48.57023 | 11.59869 | 32835 ft | 455 kts | 107° |
| 2026-04-13 13:04 | 48.55627 | 11.69228 | 32838 ft | 456 kts | 105° |
| 2026-04-13 13:05 | 48.54271 | 11.78574 | 32833 ft | 456 kts | 105° |
| 2026-04-13 13:05 | 48.52890 | 11.87994 | 32836 ft | 456 kts | 105° |
| 2026-04-13 13:06 | 48.51508 | 11.97354 | 32838 ft | 456 kts | 105° |
| 2026-04-13 13:06 | 48.50113 | 12.06736 | 32831 ft | 456 kts | 105° |
| 2026-04-13 13:07 | 48.48710 | 12.16111 | 32830 ft | 457 kts | 105° |
| 2026-04-13 13:07 | 48.47298 | 12.25486 | 32827 ft | 457 kts | 105° |
| 2026-04-13 13:08 | 48.45885 | 12.34813 | 32832 ft | 458 kts | 105° |
| 2026-04-13 13:08 | 48.44467 | 12.44121 | 32826 ft | 457 kts | 105° |
| 2026-04-13 13:09 | 48.43028 | 12.53510 | 32827 ft | 457 kts | 105° |
| 2026-04-13 13:09 | 48.41577 | 12.62916 | 32826 ft | 457 kts | 105° |
| 2026-04-13 13:10 | 48.40131 | 12.72229 | 32825 ft | 458 kts | 106° |
| 2026-04-13 13:10 | 48.38232 | 12.81376 | 32820 ft | 455 kts | 111° |
| 2026-04-13 13:11 | 48.36144 | 12.90370 | 32827 ft | 456 kts | 111° |
| 2026-04-13 13:11 | 48.34024 | 12.99466 | 32824 ft | 455 kts | 111° |
| 2026-04-13 13:12 | 48.31929 | 13.08421 | 32820 ft | 455 kts | 111° |
| 2026-04-13 13:12 | 48.29804 | 13.17469 | 32820 ft | 455 kts | 111° |
| 2026-04-13 13:13 | 48.27689 | 13.26444 | 32818 ft | 456 kts | 111° |
| 2026-04-13 13:13 | 48.25559 | 13.35444 | 32829 ft | 455 kts | 111° |
| 2026-04-13 13:14 | 48.23432 | 13.44393 | 32828 ft | 455 kts | 111° |
| 2026-04-13 13:14 | 48.21296 | 13.53346 | 32830 ft | 455 kts | 111° |
| 2026-04-13 13:15 | 48.19154 | 13.62285 | 32832 ft | 455 kts | 111° |
| 2026-04-13 13:15 | 48.17004 | 13.71222 | 32833 ft | 454 kts | 112° |
| 2026-04-13 13:16 | 48.14852 | 13.80132 | 32830 ft | 454 kts | 112° |
| 2026-04-13 13:16 | 48.12704 | 13.88989 | 32838 ft | 454 kts | 112° |
| 2026-04-13 13:17 | 48.10543 | 13.97864 | 32835 ft | 453 kts | 112° |
| 2026-04-13 13:17 | 48.08370 | 14.06755 | 32834 ft | 453 kts | 112° |
| 2026-04-13 13:18 | 48.06196 | 14.15614 | 32828 ft | 454 kts | 112° |
| 2026-04-13 13:18 | 48.04022 | 14.24435 | 32834 ft | 454 kts | 112° |
| 2026-04-13 13:19 | 48.01814 | 14.33359 | 32839 ft | 455 kts | 112° |
| 2026-04-13 13:19 | 47.99618 | 14.42203 | 32836 ft | 454 kts | 112° |
| 2026-04-13 13:20 | 47.97413 | 14.51044 | 32848 ft | 456 kts | 112° |
| 2026-04-13 13:20 | 47.95208 | 14.59854 | 32856 ft | 457 kts | 112° |
| 2026-04-13 13:21 | 47.92978 | 14.68726 | 32853 ft | 457 kts | 112° |
| 2026-04-13 13:21 | 47.90742 | 14.77588 | 32874 ft | 458 kts | 112° |
| 2026-04-13 13:22 | 47.88501 | 14.86438 | 32865 ft | 458 kts | 112° |
| 2026-04-13 13:22 | 47.86259 | 14.95252 | 32883 ft | 458 kts | 112° |
| 2026-04-13 13:23 | 47.83986 | 15.04158 | 32889 ft | 459 kts | 112° |
| 2026-04-13 13:23 | 47.81718 | 15.13007 | 32888 ft | 459 kts | 112° |
| 2026-04-13 13:24 | 47.79447 | 15.21836 | 32901 ft | 460 kts | 112° |
| 2026-04-13 13:24 | 47.77152 | 15.30723 | 32909 ft | 459 kts | 112° |
| 2026-04-13 13:25 | 47.74848 | 15.39608 | 32910 ft | 462 kts | 112° |
| 2026-04-13 13:26 | 47.71375 | 15.52943 | 32911 ft | 462 kts | 112° |
| 2026-04-13 13:26 | 47.69056 | 15.61801 | 32927 ft | 461 kts | 112° |
| 2026-04-13 13:27 | 47.66735 | 15.70635 | 32932 ft | 462 kts | 113° |
| 2026-04-13 13:27 | 47.64403 | 15.79477 | 32953 ft | 462 kts | 113° |
| 2026-04-13 13:28 | 47.62053 | 15.88352 | 32945 ft | 462 kts | 113° |
| 2026-04-13 13:28 | 47.59702 | 15.97197 | 32947 ft | 462 kts | 113° |
| 2026-04-13 13:29 | 47.57354 | 16.05998 | 32949 ft | 463 kts | 113° |
| 2026-04-13 13:29 | 47.54982 | 16.14858 | 32964 ft | 462 kts | 113° |
| 2026-04-13 13:30 | 47.52613 | 16.23668 | 32962 ft | 463 kts | 113° |
| 2026-04-13 13:30 | 47.50223 | 16.32527 | 32979 ft | 462 kts | 113° |
| 2026-04-13 13:31 | 47.47834 | 16.41349 | 32982 ft | 463 kts | 113° |
| 2026-04-13 13:31 | 47.45431 | 16.50189 | 32989 ft | 463 kts | 113° |
| 2026-04-13 13:32 | 47.43029 | 16.58991 | 32979 ft | 463 kts | 113° |
| 2026-04-13 13:32 | 47.40818 | 16.67983 | 32999 ft | 465 kts | 111° |
| 2026-04-13 13:33 | 47.38739 | 16.76965 | 32993 ft | 464 kts | 111° |
| 2026-04-13 13:33 | 47.36633 | 16.85963 | 33003 ft | 464 kts | 111° |
| 2026-04-13 13:34 | 47.34514 | 16.94942 | 33006 ft | 464 kts | 111° |
| 2026-04-13 13:34 | 47.32372 | 17.03962 | 33011 ft | 465 kts | 111° |
| 2026-04-13 13:35 | 47.30232 | 17.12929 | 33013 ft | 467 kts | 111° |
| 2026-04-13 13:35 | 47.28071 | 17.21944 | 33019 ft | 466 kts | 111° |
| 2026-04-13 13:36 | 47.25910 | 17.30918 | 33018 ft | 468 kts | 111° |
| 2026-04-13 13:36 | 47.23713 | 17.40003 | 33024 ft | 468 kts | 111° |
| 2026-04-13 13:37 | 47.21523 | 17.49019 | 33024 ft | 468 kts | 111° |
| 2026-04-13 13:37 | 47.19323 | 17.58046 | 33023 ft | 469 kts | 111° |
| 2026-04-13 13:38 | 47.17106 | 17.67100 | 33018 ft | 469 kts | 111° |
| 2026-04-13 13:38 | 47.14887 | 17.76128 | 33018 ft | 470 kts | 111° |
| 2026-04-13 13:39 | 47.12670 | 17.85110 | 33017 ft | 471 kts | 111° |
| 2026-04-13 13:39 | 47.10427 | 17.94162 | 33013 ft | 471 kts | 111° |
| 2026-04-13 13:40 | 47.08171 | 18.03230 | 33019 ft | 471 kts | 111° |
| 2026-04-13 13:40 | 47.05918 | 18.12248 | 33013 ft | 472 kts | 111° |
| 2026-04-13 13:41 | 47.03653 | 18.21283 | 33016 ft | 473 kts | 111° |
| 2026-04-13 13:41 | 47.01363 | 18.30375 | 33023 ft | 474 kts | 111° |
| 2026-04-13 13:42 | 46.99062 | 18.39478 | 33027 ft | 474 kts | 111° |
| 2026-04-13 13:42 | 46.96752 | 18.48578 | 33029 ft | 476 kts | 111° |
| 2026-04-13 13:43 | 46.94435 | 18.57673 | 33021 ft | 477 kts | 111° |
| 2026-04-13 13:43 | 46.92097 | 18.66808 | 33024 ft | 477 kts | 112° |
| 2026-04-13 13:44 | 46.89776 | 18.75847 | 33033 ft | 478 kts | 112° |
| 2026-04-13 13:44 | 46.87425 | 18.84966 | 33033 ft | 480 kts | 112° |
| 2026-04-13 13:45 | 46.85057 | 18.94111 | 33033 ft | 479 kts | 112° |
| 2026-04-13 13:45 | 46.82677 | 19.03265 | 33036 ft | 480 kts | 112° |
| 2026-04-13 13:46 | 46.80307 | 19.12352 | 33028 ft | 480 kts | 112° |
| 2026-04-13 13:46 | 46.77914 | 19.21484 | 33032 ft | 481 kts | 112° |
| 2026-04-13 13:47 | 46.75512 | 19.30617 | 33040 ft | 482 kts | 112° |
| 2026-04-13 13:47 | 46.73106 | 19.39731 | 33048 ft | 484 kts | 112° |
| 2026-04-13 13:48 | 46.70689 | 19.48848 | 33050 ft | 484 kts | 112° |
| 2026-04-13 13:48 | 46.68252 | 19.58008 | 33035 ft | 483 kts | 112° |
| 2026-04-13 13:49 | 46.65796 | 19.67201 | 33046 ft | 486 kts | 112° |
| 2026-04-13 13:49 | 46.63341 | 19.76357 | 33052 ft | 485 kts | 112° |
| 2026-04-13 13:50 | 46.60878 | 19.85506 | 33039 ft | 486 kts | 112° |
| 2026-04-13 13:50 | 46.58382 | 19.94742 | 33042 ft | 486 kts | 112° |
| 2026-04-13 13:51 | 46.55901 | 20.03885 | 33041 ft | 487 kts | 112° |
| 2026-04-13 13:51 | 46.53393 | 20.13094 | 33044 ft | 489 kts | 112° |
| 2026-04-13 13:52 | 46.50883 | 20.22274 | 33047 ft | 488 kts | 112° |
| 2026-04-13 13:52 | 46.48360 | 20.31465 | 33053 ft | 490 kts | 112° |
| 2026-04-13 13:53 | 46.45822 | 20.40679 | 33053 ft | 491 kts | 112° |
| 2026-04-13 13:53 | 46.43280 | 20.49870 | 33050 ft | 492 kts | 112° |
| 2026-04-13 13:54 | 46.40734 | 20.59040 | 33048 ft | 492 kts | 112° |
| 2026-04-13 13:54 | 46.38173 | 20.68229 | 33045 ft | 491 kts | 113° |
| 2026-04-13 13:55 | 46.35625 | 20.77336 | 33045 ft | 492 kts | 113° |
| 2026-04-13 13:55 | 46.33037 | 20.86551 | 33052 ft | 493 kts | 113° |
| 2026-04-13 13:56 | 46.30441 | 20.95761 | 33051 ft | 494 kts | 113° |
| 2026-04-13 13:56 | 46.27824 | 21.05007 | 33055 ft | 493 kts | 113° |
| 2026-04-13 13:57 | 46.25204 | 21.14223 | 33048 ft | 496 kts | 113° |
| 2026-04-13 13:57 | 46.22568 | 21.23427 | 33060 ft | 495 kts | 113° |
| 2026-04-13 13:58 | 46.19927 | 21.32616 | 33054 ft | 497 kts | 113° |
| 2026-04-13 13:58 | 46.17271 | 21.41820 | 33052 ft | 496 kts | 113° |
| 2026-04-13 13:59 | 46.14611 | 21.51006 | 33051 ft | 497 kts | 113° |
| 2026-04-13 13:59 | 46.11950 | 21.60164 | 33055 ft | 497 kts | 113° |
| 2026-04-13 14:00 | 46.09272 | 21.69344 | 33047 ft | 498 kts | 114° |
| 2026-04-13 14:00 | 46.06560 | 21.78603 | 33038 ft | 498 kts | 114° |
| 2026-04-13 14:01 | 46.03854 | 21.87812 | 33037 ft | 499 kts | 114° |
| 2026-04-13 14:01 | 46.01147 | 21.96988 | 33040 ft | 498 kts | 114° |
| 2026-04-13 14:02 | 45.98405 | 22.06247 | 33049 ft | 500 kts | 114° |
| 2026-04-13 14:02 | 45.95657 | 22.15496 | 33053 ft | 500 kts | 114° |
| 2026-04-13 14:03 | 45.92901 | 22.24733 | 33055 ft | 501 kts | 114° |
| 2026-04-13 14:03 | 45.90128 | 22.33996 | 33061 ft | 502 kts | 114° |
| 2026-04-13 14:04 | 45.87355 | 22.43225 | 33064 ft | 503 kts | 114° |
| 2026-04-13 14:04 | 45.84719 | 22.51962 | 33058 ft | 505 kts | 114° |
| 2026-04-13 14:05 | 45.81932 | 22.61174 | 33066 ft | 505 kts | 113° |
| 2026-04-13 14:05 | 45.79125 | 22.70414 | 33380 ft | 505 kts | 114° |
| 2026-04-13 14:05 | 45.77728 | 22.75002 | 33794 ft | 501 kts | 114° |
| 2026-04-13 14:06 | 45.76333 | 22.79573 | 34143 ft | 498 kts | 114° |
| 2026-04-13 14:06 | 45.74961 | 22.84061 | 34409 ft | 497 kts | 114° |
| 2026-04-13 14:06 | 45.73563 | 22.88625 | 34550 ft | 498 kts | 114° |
| 2026-04-13 14:06 | 45.72174 | 22.93153 | 34722 ft | 499 kts | 114° |
| 2026-04-13 14:07 | 45.70781 | 22.97686 | 34900 ft | 499 kts | 114° |
| 2026-04-13 14:07 | 45.69399 | 23.02172 | 35057 ft | 499 kts | 114° |
| 2026-04-13 14:07 | 45.67997 | 23.06719 | 35087 ft | 499 kts | 114° |
| 2026-04-13 14:08 | 45.65176 | 23.15843 | 35097 ft | 499 kts | 114° |
| 2026-04-13 14:08 | 45.62362 | 23.24909 | 35098 ft | 499 kts | 114° |
| 2026-04-13 14:09 | 45.59536 | 23.33982 | 35080 ft | 500 kts | 114° |
| 2026-04-13 14:09 | 45.56702 | 23.43045 | 35084 ft | 501 kts | 114° |
| 2026-04-13 14:10 | 45.53860 | 23.52108 | 35085 ft | 501 kts | 114° |
| 2026-04-13 14:10 | 45.51020 | 23.61130 | 35075 ft | 502 kts | 114° |
| 2026-04-13 14:11 | 45.48132 | 23.70270 | 35066 ft | 503 kts | 115° |
| 2026-04-13 14:11 | 45.45269 | 23.79302 | 35062 ft | 503 kts | 115° |
| 2026-04-13 14:12 | 45.42396 | 23.88334 | 35070 ft | 503 kts | 115° |
| 2026-04-13 14:12 | 45.39501 | 23.97400 | 35082 ft | 504 kts | 115° |
| 2026-04-13 14:13 | 45.36603 | 24.06448 | 35091 ft | 504 kts | 114° |
| 2026-04-13 14:13 | 45.33685 | 24.15523 | 35101 ft | 504 kts | 115° |
| 2026-04-13 14:14 | 45.29297 | 24.29115 | 35125 ft | 506 kts | 115° |
| 2026-04-13 14:14 | 45.26350 | 24.38199 | 35126 ft | 506 kts | 114° |
| 2026-04-13 14:15 | 45.23391 | 24.47295 | 35136 ft | 506 kts | 114° |
| 2026-04-13 14:15 | 45.20424 | 24.56379 | 35143 ft | 507 kts | 114° |
| 2026-04-13 14:16 | 45.17464 | 24.65412 | 35143 ft | 507 kts | 115° |
| 2026-04-13 14:16 | 45.14492 | 24.74450 | 35141 ft | 508 kts | 115° |
| 2026-04-13 14:17 | 45.11489 | 24.83550 | 35148 ft | 507 kts | 115° |
| 2026-04-13 14:17 | 45.08483 | 24.92630 | 35152 ft | 508 kts | 115° |
| 2026-04-13 14:18 | 45.05484 | 25.01658 | 35164 ft | 508 kts | 115° |
| 2026-04-13 14:18 | 45.02473 | 25.10689 | 35168 ft | 510 kts | 115° |
| 2026-04-13 14:19 | 44.99439 | 25.19757 | 35173 ft | 510 kts | 115° |
| 2026-04-13 14:19 | 44.96400 | 25.28811 | 35179 ft | 510 kts | 115° |
| 2026-04-13 14:20 | 44.93359 | 25.37842 | 35182 ft | 510 kts | 115° |
| 2026-04-13 14:20 | 44.90293 | 25.46914 | 35187 ft | 512 kts | 115° |
| 2026-04-13 14:21 | 44.87222 | 25.55967 | 35183 ft | 511 kts | 115° |
| 2026-04-13 14:21 | 44.84151 | 25.64995 | 35184 ft | 512 kts | 115° |
| 2026-04-13 14:22 | 44.81050 | 25.74076 | 35181 ft | 511 kts | 115° |
| 2026-04-13 14:22 | 44.77953 | 25.83115 | 35181 ft | 513 kts | 115° |
| 2026-04-13 14:23 | 44.74806 | 25.92272 | 35190 ft | 514 kts | 115° |
| 2026-04-13 14:23 | 44.71692 | 26.01301 | 35196 ft | 513 kts | 115° |
| 2026-04-13 14:24 | 44.68541 | 26.10404 | 35196 ft | 515 kts | 115° |
| 2026-04-13 14:24 | 44.65366 | 26.19549 | 35195 ft | 514 kts | 115° |
| 2026-04-13 14:25 | 44.62207 | 26.28614 | 35201 ft | 518 kts | 115° |
| 2026-04-13 14:25 | 44.59031 | 26.37701 | 35201 ft | 518 kts | 115° |
| 2026-04-13 14:26 | 44.55842 | 26.46791 | 35203 ft | 517 kts | 115° |
| 2026-04-13 14:26 | 44.52635 | 26.55903 | 35195 ft | 519 kts | 115° |
| 2026-04-13 14:27 | 44.49424 | 26.64997 | 35201 ft | 520 kts | 115° |
| 2026-04-13 14:27 | 44.46179 | 26.74154 | 35184 ft | 520 kts | 116° |
| 2026-04-13 14:28 | 44.42945 | 26.83251 | 35185 ft | 521 kts | 115° |
| 2026-04-13 14:28 | 44.39706 | 26.92331 | 35191 ft | 522 kts | 116° |
| 2026-04-13 14:29 | 44.36448 | 27.01434 | 35194 ft | 521 kts | 115° |
| 2026-04-13 14:29 | 44.33203 | 27.10470 | 35196 ft | 524 kts | 115° |
| 2026-04-13 14:30 | 44.29905 | 27.19626 | 35204 ft | 524 kts | 115° |
| 2026-04-13 14:30 | 44.26617 | 27.28722 | 35204 ft | 524 kts | 115° |
| 2026-04-13 14:31 | 44.23318 | 27.37818 | 35206 ft | 526 kts | 115° |
| 2026-04-13 14:31 | 44.20000 | 27.46936 | 35210 ft | 524 kts | 115° |
| 2026-04-13 14:32 | 44.16672 | 27.56051 | 35215 ft | 525 kts | 115° |
| 2026-04-13 14:32 | 44.13335 | 27.65161 | 35220 ft | 526 kts | 116° |
| 2026-04-13 14:33 | 44.09978 | 27.74297 | 35213 ft | 527 kts | 116° |
| 2026-04-13 14:33 | 44.06609 | 27.83433 | 35219 ft | 529 kts | 116° |
| 2026-04-13 14:34 | 44.03251 | 27.92511 | 35223 ft | 528 kts | 115° |
| 2026-04-13 14:34 | 43.99876 | 28.01605 | 35226 ft | 528 kts | 116° |
| 2026-04-13 14:35 | 43.96478 | 28.10730 | 35223 ft | 528 kts | 115° |
| 2026-04-13 14:35 | 43.93100 | 28.19772 | 35232 ft | 530 kts | 116° |
| 2026-04-13 14:36 | 43.89675 | 28.28910 | 35234 ft | 531 kts | 115° |
| 2026-04-13 14:36 | 43.86252 | 28.38014 | 35231 ft | 532 kts | 116° |
| 2026-04-13 14:37 | 43.82824 | 28.47100 | 35238 ft | 533 kts | 115° |
| 2026-04-13 14:37 | 43.79355 | 28.56264 | 35244 ft | 535 kts | 115° |
| 2026-04-13 14:38 | 43.75894 | 28.65378 | 35252 ft | 534 kts | 116° |
| 2026-04-13 14:38 | 43.72420 | 28.74499 | 35245 ft | 536 kts | 116° |
| 2026-04-13 14:39 | 43.68541 | 28.83324 | 35252 ft | 536 kts | 124° |
| 2026-04-13 14:39 | 43.64225 | 28.91725 | 35254 ft | 539 kts | 125° |
| 2026-04-13 14:40 | 43.59821 | 29.00198 | 35261 ft | 539 kts | 125° |
| 2026-04-13 14:40 | 43.55422 | 29.08605 | 35262 ft | 539 kts | 125° |
| 2026-04-13 14:41 | 43.50994 | 29.17027 | 35267 ft | 540 kts | 125° |
| 2026-04-13 14:41 | 43.46585 | 29.25378 | 35271 ft | 541 kts | 125° |
| 2026-04-13 14:42 | 43.42136 | 29.33778 | 35270 ft | 540 kts | 125° |
| 2026-04-13 14:42 | 43.37691 | 29.42143 | 35275 ft | 542 kts | 125° |
| 2026-04-13 14:43 | 43.33237 | 29.50497 | 35278 ft | 542 kts | 125° |
| 2026-04-13 14:43 | 43.28770 | 29.58854 | 35282 ft | 542 kts | 125° |
| 2026-04-13 14:44 | 43.24307 | 29.67176 | 35276 ft | 542 kts | 126° |
| 2026-04-13 14:44 | 43.19820 | 29.75522 | 35276 ft | 544 kts | 126° |
| 2026-04-13 14:45 | 43.15341 | 29.83827 | 35281 ft | 543 kts | 126° |
| 2026-04-13 14:45 | 43.10849 | 29.92133 | 35281 ft | 544 kts | 126° |
| 2026-04-13 14:46 | 43.06348 | 30.00434 | 35285 ft | 545 kts | 126° |
| 2026-04-13 14:46 | 43.01790 | 30.08814 | 35292 ft | 546 kts | 126° |
| 2026-04-13 14:47 | 42.97221 | 30.17193 | 35290 ft | 546 kts | 126° |
| 2026-04-13 14:47 | 42.92679 | 30.25498 | 35297 ft | 546 kts | 126° |
| 2026-04-13 14:48 | 42.88119 | 30.33812 | 35279 ft | 547 kts | 125° |
| 2026-04-13 14:48 | 42.83564 | 30.42096 | 35281 ft | 547 kts | 125° |
| 2026-04-13 14:49 | 42.78986 | 30.50395 | 35282 ft | 548 kts | 125° |
| 2026-04-13 14:49 | 42.74969 | 30.59199 | 35289 ft | 542 kts | 109° |
| 2026-04-13 14:50 | 42.72889 | 30.68949 | 35281 ft | 532 kts | 93° |
| 2026-04-13 14:50 | 42.71881 | 30.78947 | 35277 ft | 533 kts | 92° |
| 2026-04-13 14:51 | 42.70876 | 30.89017 | 35277 ft | 533 kts | 91° |
| 2026-04-13 14:51 | 42.69857 | 30.99020 | 35279 ft | 532 kts | 91° |
| 2026-04-13 14:52 | 42.68834 | 31.08931 | 35278 ft | 534 kts | 91° |
| 2026-04-13 14:52 | 42.67777 | 31.19034 | 35280 ft | 534 kts | 91° |
| 2026-04-13 14:53 | 42.66726 | 31.28978 | 35281 ft | 533 kts | 91° |
| 2026-04-13 14:53 | 42.65661 | 31.38968 | 35283 ft | 534 kts | 91° |
| 2026-04-13 14:54 | 42.64581 | 31.49004 | 35284 ft | 536 kts | 91° |
| 2026-04-13 14:54 | 42.63491 | 31.59029 | 35284 ft | 532 kts | 91° |
| 2026-04-13 14:55 | 42.62399 | 31.69012 | 35274 ft | 536 kts | 92° |
| 2026-04-13 14:55 | 42.61297 | 31.78999 | 35273 ft | 537 kts | 91° |
| 2026-04-13 14:56 | 42.60180 | 31.89027 | 35274 ft | 538 kts | 92° |
| 2026-04-13 14:56 | 42.59049 | 31.99092 | 35279 ft | 535 kts | 91° |
| 2026-04-13 14:57 | 42.57937 | 32.09067 | 35279 ft | 535 kts | 91° |
| 2026-04-13 14:58 | 42.56213 | 32.24150 | 35275 ft | 535 kts | 91° |
| 2026-04-13 14:58 | 42.55062 | 32.34128 | 35280 ft | 540 kts | 91° |
| 2026-04-13 14:59 | 42.53889 | 32.44201 | 35280 ft | 538 kts | 91° |
| 2026-04-13 14:59 | 42.52703 | 32.54304 | 35277 ft | 537 kts | 91° |
| 2026-04-13 15:00 | 42.51517 | 32.64348 | 35280 ft | 540 kts | 91° |
| 2026-04-13 15:00 | 42.50316 | 32.74424 | 35270 ft | 538 kts | 92° |
| 2026-04-13 15:01 | 42.49111 | 32.84473 | 35276 ft | 542 kts | 92° |
| 2026-04-13 15:01 | 42.47889 | 32.94556 | 35273 ft | 537 kts | 91° |
| 2026-04-13 15:02 | 42.46670 | 33.04562 | 35265 ft | 538 kts | 91° |
| 2026-04-13 15:02 | 42.45441 | 33.14578 | 35266 ft | 539 kts | 91° |
| 2026-04-13 15:03 | 42.44199 | 33.24599 | 35274 ft | 541 kts | 91° |
| 2026-04-13 15:03 | 42.42949 | 33.34612 | 35266 ft | 539 kts | 91° |
| 2026-04-13 15:04 | 42.41702 | 33.44521 | 35262 ft | 537 kts | 91° |
| 2026-04-13 15:04 | 42.40438 | 33.54517 | 35283 ft | 540 kts | 91° |
| 2026-04-13 15:05 | 42.39167 | 33.64490 | 35253 ft | 539 kts | 92° |
| 2026-04-13 15:05 | 42.37887 | 33.74466 | 35254 ft | 541 kts | 92° |
| 2026-04-13 15:06 | 42.36617 | 33.84281 | 35243 ft | 537 kts | 92° |
| 2026-04-13 15:06 | 42.35332 | 33.94175 | 35267 ft | 540 kts | 92° |
| 2026-04-13 15:07 | 42.34022 | 34.04208 | 35248 ft | 541 kts | 92° |
| 2026-04-13 15:07 | 42.32718 | 34.14106 | 35249 ft | 536 kts | 92° |
| 2026-04-13 15:08 | 42.31416 | 34.23940 | 35261 ft | 536 kts | 92° |
| 2026-04-13 15:08 | 42.30097 | 34.33842 | 35247 ft | 538 kts | 92° |
| 2026-04-13 15:09 | 42.28764 | 34.43775 | 35261 ft | 538 kts | 92° |
| 2026-04-13 15:09 | 42.27426 | 34.53649 | 35271 ft | 537 kts | 92° |
| 2026-04-13 15:10 | 42.26082 | 34.63511 | 35471 ft | 536 kts | 92° |
| 2026-04-13 15:10 | 42.25400 | 34.68487 | 35243 ft | 536 kts | 93° |
| 2026-04-13 15:10 | 42.24723 | 34.73414 | 35428 ft | 537 kts | 94° |
| 2026-04-13 15:10 | 42.24044 | 34.78338 | 35259 ft | 536 kts | 94° |
| 2026-04-13 15:11 | 42.23356 | 34.83287 | 35269 ft | 530 kts | 93° |
| 2026-04-13 15:11 | 42.21996 | 34.93047 | 35268 ft | 532 kts | 93° |
| 2026-04-13 15:12 | 42.20626 | 35.02817 | 35247 ft | 534 kts | 93° |
| 2026-04-13 15:12 | 42.19247 | 35.12577 | 35266 ft | 531 kts | 94° |
| 2026-04-13 15:13 | 42.17865 | 35.22305 | 35265 ft | 531 kts | 94° |
| 2026-04-13 15:13 | 42.16467 | 35.32073 | 35263 ft | 531 kts | 94° |
| 2026-04-13 15:14 | 42.15073 | 35.41762 | 35260 ft | 531 kts | 94° |
| 2026-04-13 15:14 | 42.13663 | 35.51515 | 35272 ft | 531 kts | 94° |
| 2026-04-13 15:15 | 42.12243 | 35.61280 | 35287 ft | 529 kts | 94° |
| 2026-04-13 15:15 | 42.10829 | 35.70943 | 35256 ft | 528 kts | 95° |
| 2026-04-13 15:16 | 42.09404 | 35.80631 | 35251 ft | 529 kts | 96° |
| 2026-04-13 15:16 | 42.07971 | 35.90312 | 35252 ft | 529 kts | 95° |
| 2026-04-13 15:17 | 42.06528 | 35.99985 | 35260 ft | 525 kts | 95° |
| 2026-04-13 15:17 | 42.05090 | 36.09579 | 35239 ft | 526 kts | 96° |
| 2026-04-13 15:18 | 42.03642 | 36.19185 | 35260 ft | 526 kts | 96° |
| 2026-04-13 15:18 | 42.02191 | 36.28745 | 35261 ft | 523 kts | 96° |
| 2026-04-13 15:19 | 42.00734 | 36.38290 | 35260 ft | 523 kts | 96° |
| 2026-04-13 15:19 | 41.99268 | 36.47849 | 35267 ft | 524 kts | 96° |
| 2026-04-13 15:20 | 41.97791 | 36.57406 | 35273 ft | 522 kts | 96° |
| 2026-04-13 15:20 | 41.96311 | 36.66933 | 35240 ft | 519 kts | 97° |
| 2026-04-13 15:21 | 41.94833 | 36.76400 | 35245 ft | 522 kts | 97° |
| 2026-04-13 15:21 | 41.93346 | 36.85863 | 35251 ft | 522 kts | 97° |
| 2026-04-13 15:22 | 41.91849 | 36.95338 | 35223 ft | 518 kts | 98° |
| 2026-04-13 15:22 | 41.90468 | 37.04842 | 35236 ft | 513 kts | 91° |
| 2026-04-13 15:23 | 41.90215 | 37.14323 | 35240 ft | 512 kts | 86° |
| 2026-04-13 15:23 | 41.90094 | 37.23829 | 35256 ft | 510 kts | 86° |
| 2026-04-13 15:24 | 41.89957 | 37.33277 | 35231 ft | 508 kts | 86° |
| 2026-04-13 15:24 | 41.89808 | 37.42819 | 35227 ft | 507 kts | 86° |
| 2026-04-13 15:25 | 41.89651 | 37.52242 | 35230 ft | 508 kts | 86° |
| 2026-04-13 15:25 | 41.89484 | 37.61648 | 35226 ft | 507 kts | 87° |
| 2026-04-13 15:26 | 41.89309 | 37.71094 | 35229 ft | 507 kts | 88° |
| 2026-04-13 15:26 | 41.89125 | 37.80534 | 35219 ft | 506 kts | 88° |
| 2026-04-13 15:27 | 41.88936 | 37.89889 | 35228 ft | 505 kts | 88° |
| 2026-04-13 15:27 | 41.88736 | 37.99300 | 35230 ft | 504 kts | 88° |
| 2026-04-13 15:28 | 41.88531 | 38.08630 | 35237 ft | 503 kts | 88° |
| 2026-04-13 15:28 | 41.88320 | 38.17953 | 35235 ft | 505 kts | 88° |
| 2026-04-13 15:29 | 41.88098 | 38.27351 | 35233 ft | 503 kts | 89° |
| 2026-04-13 15:29 | 41.87870 | 38.36677 | 35228 ft | 502 kts | 89° |
| 2026-04-13 15:30 | 41.87637 | 38.45942 | 35229 ft | 501 kts | 89° |
| 2026-04-13 15:30 | 41.87394 | 38.55300 | 35218 ft | 500 kts | 89° |
| 2026-04-13 15:31 | 41.87145 | 38.64602 | 35217 ft | 501 kts | 89° |
| 2026-04-13 15:31 | 41.86888 | 38.73893 | 35213 ft | 500 kts | 90° |
| 2026-04-13 15:32 | 41.86624 | 38.83167 | 35207 ft | 499 kts | 90° |
| 2026-04-13 15:32 | 41.86353 | 38.92422 | 35209 ft | 498 kts | 90° |
| 2026-04-13 15:33 | 41.86075 | 39.01684 | 35206 ft | 498 kts | 90° |
| 2026-04-13 15:33 | 41.85790 | 39.10917 | 35208 ft | 497 kts | 90° |
| 2026-04-13 15:34 | 41.85349 | 39.24766 | 35202 ft | 496 kts | 90° |
| 2026-04-13 15:34 | 41.85048 | 39.33940 | 35208 ft | 497 kts | 90° |
| 2026-04-13 15:35 | 41.84736 | 39.43187 | 35200 ft | 495 kts | 90° |
| 2026-04-13 15:35 | 41.84420 | 39.52377 | 35207 ft | 495 kts | 91° |
| 2026-04-13 15:36 | 41.84097 | 39.61559 | 35204 ft | 494 kts | 91° |
| 2026-04-13 15:36 | 41.83766 | 39.70759 | 35205 ft | 493 kts | 91° |
| 2026-04-13 15:37 | 41.83430 | 39.79912 | 35204 ft | 493 kts | 91° |
| 2026-04-13 15:37 | 41.83087 | 39.89026 | 35203 ft | 492 kts | 92° |
| 2026-04-13 15:38 | 41.82737 | 39.98159 | 35205 ft | 492 kts | 92° |
| 2026-04-13 15:38 | 41.82379 | 40.07294 | 35206 ft | 491 kts | 92° |
| 2026-04-13 15:39 | 41.82016 | 40.16402 | 35209 ft | 491 kts | 92° |
| 2026-04-13 15:39 | 41.81643 | 40.25508 | 35207 ft | 492 kts | 92° |
| 2026-04-13 15:40 | 41.81263 | 40.34642 | 35202 ft | 490 kts | 92° |
| 2026-04-13 15:40 | 41.80877 | 40.43738 | 35204 ft | 491 kts | 92° |
| 2026-04-13 15:41 | 41.80482 | 40.52852 | 35197 ft | 490 kts | 92° |
| 2026-04-13 15:41 | 41.80082 | 40.61934 | 35196 ft | 490 kts | 92° |
| 2026-04-13 15:42 | 41.79661 | 40.71075 | 35201 ft | 491 kts | 94° |
| 2026-04-13 15:42 | 41.79217 | 40.80152 | 35193 ft | 489 kts | 94° |
| 2026-04-13 15:43 | 41.78768 | 40.89202 | 35194 ft | 489 kts | 94° |
| 2026-04-13 15:43 | 41.78313 | 40.98237 | 35197 ft | 489 kts | 94° |
| 2026-04-13 15:44 | 41.77850 | 41.07304 | 35192 ft | 488 kts | 94° |
| 2026-04-13 15:44 | 41.77381 | 41.16336 | 35194 ft | 489 kts | 94° |
| 2026-04-13 15:45 | 41.76904 | 41.25409 | 35205 ft | 489 kts | 94° |
| 2026-04-13 15:45 | 41.76419 | 41.34482 | 35202 ft | 488 kts | 94° |
| 2026-04-13 15:46 | 41.75930 | 41.43504 | 35197 ft | 488 kts | 94° |
| 2026-04-13 15:46 | 41.75436 | 41.52494 | 35202 ft | 488 kts | 94° |
| 2026-04-13 15:47 | 41.74928 | 41.61588 | 35198 ft | 487 kts | 94° |
| 2026-04-13 15:47 | 41.74419 | 41.70587 | 35194 ft | 487 kts | 95° |
| 2026-04-13 15:48 | 41.73900 | 41.79640 | 35184 ft | 487 kts | 95° |
| 2026-04-13 15:48 | 41.73374 | 41.88677 | 35158 ft | 486 kts | 95° |
| 2026-04-13 15:49 | 41.72844 | 41.97673 | 35132 ft | 485 kts | 95° |
| 2026-04-13 15:49 | 41.72307 | 42.06655 | 35095 ft | 486 kts | 95° |
| 2026-04-13 15:50 | 41.71572 | 42.15595 | 35072 ft | 486 kts | 99° |
| 2026-04-13 15:50 | 41.70559 | 42.24517 | 35047 ft | 485 kts | 99° |
| 2026-04-13 15:51 | 41.69554 | 42.33454 | 35029 ft | 486 kts | 99° |
| 2026-04-13 15:51 | 41.68556 | 42.42373 | 35012 ft | 485 kts | 99° |
| 2026-04-13 15:52 | 41.67558 | 42.51289 | 34993 ft | 484 kts | 99° |
| 2026-04-13 15:52 | 41.66558 | 42.60182 | 34994 ft | 485 kts | 99° |
| 2026-04-13 15:53 | 41.65550 | 42.69101 | 35000 ft | 484 kts | 100° |
| 2026-04-13 15:53 | 41.64537 | 42.78011 | 35000 ft | 485 kts | 100° |
| 2026-04-13 15:54 | 41.63518 | 42.86909 | 35001 ft | 484 kts | 100° |
| 2026-04-13 15:54 | 41.62501 | 42.95736 | 35006 ft | 484 kts | 100° |
| 2026-04-13 15:55 | 41.61468 | 43.04638 | 35011 ft | 483 kts | 100° |
| 2026-04-13 15:55 | 41.60437 | 43.13463 | 35019 ft | 483 kts | 100° |
| 2026-04-13 15:56 | 41.59396 | 43.22318 | 35029 ft | 483 kts | 100° |
| 2026-04-13 15:56 | 41.58342 | 43.31214 | 35040 ft | 483 kts | 100° |
| 2026-04-13 15:57 | 41.57288 | 43.40053 | 35025 ft | 483 kts | 100° |
| 2026-04-13 15:57 | 41.56234 | 43.48837 | 35011 ft | 483 kts | 101° |
| 2026-04-13 15:58 | 41.55164 | 43.57689 | 34982 ft | 483 kts | 101° |
| 2026-04-13 15:58 | 41.54091 | 43.66508 | 34956 ft | 483 kts | 101° |
| 2026-04-13 15:59 | 41.53007 | 43.75356 | 34928 ft | 483 kts | 101° |
| 2026-04-13 15:59 | 41.51919 | 43.84189 | 34929 ft | 483 kts | 101° |
| 2026-04-13 16:00 | 41.50827 | 43.92989 | 34947 ft | 482 kts | 102° |
| 2026-04-13 16:00 | 41.49728 | 44.01789 | 34977 ft | 482 kts | 102° |
| 2026-04-13 16:01 | 41.48621 | 44.10603 | 34993 ft | 482 kts | 102° |
| 2026-04-13 16:01 | 41.47510 | 44.19379 | 35009 ft | 482 kts | 102° |
| 2026-04-13 16:02 | 41.46391 | 44.28177 | 35024 ft | 481 kts | 102° |
| 2026-04-13 16:02 | 41.45264 | 44.36975 | 35027 ft | 482 kts | 102° |
| 2026-04-13 16:03 | 41.44130 | 44.45769 | 35026 ft | 482 kts | 102° |
| 2026-04-13 16:03 | 41.42991 | 44.54555 | 35034 ft | 482 kts | 102° |
| 2026-04-13 16:04 | 41.41840 | 44.63374 | 35036 ft | 482 kts | 102° |
| 2026-04-13 16:04 | 41.40691 | 44.72122 | 35036 ft | 481 kts | 103° |
| 2026-04-13 16:05 | 41.39534 | 44.80876 | 35036 ft | 481 kts | 103° |
| 2026-04-13 16:05 | 41.38366 | 44.89669 | 35034 ft | 482 kts | 103° |
| 2026-04-13 16:06 | 41.37194 | 44.98433 | 35032 ft | 481 kts | 104° |
| 2026-04-13 16:06 | 41.35983 | 45.07177 | 35026 ft | 479 kts | 108° |
| 2026-04-13 16:07 | 41.33981 | 45.15590 | 35029 ft | 477 kts | 112° |
| 2026-04-13 16:07 | 41.31852 | 45.23943 | 35028 ft | 476 kts | 112° |
| 2026-04-13 16:08 | 41.29722 | 45.32248 | 35025 ft | 476 kts | 113° |
| 2026-04-13 16:08 | 41.27583 | 45.40549 | 35022 ft | 475 kts | 113° |
| 2026-04-13 16:09 | 41.25438 | 45.48838 | 35016 ft | 475 kts | 113° |
| 2026-04-13 16:09 | 41.23286 | 45.57120 | 35019 ft | 476 kts | 113° |
| 2026-04-13 16:10 | 41.21125 | 45.65409 | 35007 ft | 474 kts | 114° |
| 2026-04-13 16:10 | 41.18955 | 45.73674 | 34997 ft | 473 kts | 114° |
| 2026-04-13 16:11 | 41.16783 | 45.81911 | 34992 ft | 473 kts | 114° |
| 2026-04-13 16:11 | 41.14616 | 45.90101 | 34998 ft | 473 kts | 114° |
| 2026-04-13 16:12 | 41.12430 | 45.98340 | 34999 ft | 472 kts | 114° |
| 2026-04-13 16:12 | 41.10250 | 46.06526 | 34993 ft | 473 kts | 115° |
| 2026-04-13 16:13 | 41.08055 | 46.14742 | 35002 ft | 471 kts | 115° |
| 2026-04-13 16:13 | 41.05874 | 46.22880 | 34976 ft | 471 kts | 115° |
| 2026-04-13 16:14 | 41.03670 | 46.31078 | 34999 ft | 472 kts | 115° |
| 2026-04-13 16:14 | 41.01479 | 46.39295 | 34989 ft | 470 kts | 115° |
| 2026-04-13 16:15 | 40.99306 | 46.47416 | 34988 ft | 471 kts | 115° |
| 2026-04-13 16:15 | 40.97108 | 46.55605 | 34983 ft | 469 kts | 115° |
| 2026-04-13 16:16 | 40.94922 | 46.63717 | 34989 ft | 470 kts | 116° |
| 2026-04-13 16:16 | 40.92729 | 46.71830 | 34989 ft | 468 kts | 116° |
| 2026-04-13 16:17 | 40.91004 | 46.80167 | 34976 ft | 480 kts | 103° |
| 2026-04-13 16:17 | 40.91198 | 46.89103 | 34982 ft | 496 kts | 85° |
| 2026-04-13 16:18 | 40.92810 | 46.98019 | 34973 ft | 499 kts | 82° |
| 2026-04-13 16:18 | 40.94488 | 47.06968 | 34980 ft | 501 kts | 82° |
| 2026-04-13 16:19 | 40.96146 | 47.15903 | 34978 ft | 499 kts | 82° |
| 2026-04-13 16:19 | 40.97792 | 47.24851 | 34966 ft | 498 kts | 82° |
| 2026-04-13 16:20 | 40.99411 | 47.33703 | 34972 ft | 498 kts | 82° |
| 2026-04-13 16:20 | 41.00221 | 47.38159 | 34814 ft | 499 kts | 82° |
| 2026-04-13 16:20 | 41.01038 | 47.42661 | 35003 ft | 499 kts | 82° |
| 2026-04-13 16:21 | 41.02652 | 47.51591 | 34821 ft | 497 kts | 82° |
| 2026-04-13 16:21 | 41.03445 | 47.55992 | 34975 ft | 496 kts | 82° |
| 2026-04-13 16:21 | 41.04256 | 47.60515 | 34960 ft | 498 kts | 82° |
| 2026-04-13 16:22 | 41.05849 | 47.69416 | 34956 ft | 497 kts | 83° |
| 2026-04-13 16:23 | 41.08223 | 47.82758 | 34938 ft | 495 kts | 83° |
| 2026-04-13 16:23 | 41.09795 | 47.91654 | 34911 ft | 496 kts | 83° |
| 2026-04-13 16:24 | 41.11579 | 48.00474 | 34897 ft | 499 kts | 76° |
| 2026-04-13 16:24 | 41.13999 | 48.09163 | 34888 ft | 503 kts | 75° |
| 2026-04-13 16:25 | 41.16413 | 48.17804 | 34889 ft | 500 kts | 75° |
| 2026-04-13 16:25 | 41.18827 | 48.26497 | 34902 ft | 500 kts | 75° |
| 2026-04-13 16:26 | 41.21201 | 48.35083 | 34913 ft | 500 kts | 75° |
| 2026-04-13 16:26 | 41.23589 | 48.43755 | 34937 ft | 499 kts | 75° |
| 2026-04-13 16:27 | 41.25975 | 48.52455 | 34956 ft | 499 kts | 75° |
| 2026-04-13 16:27 | 41.28340 | 48.61110 | 34984 ft | 500 kts | 75° |
| 2026-04-13 16:28 | 41.30700 | 48.69772 | 34988 ft | 496 kts | 75° |
| 2026-04-13 16:28 | 41.33045 | 48.78416 | 34990 ft | 497 kts | 75° |
| 2026-04-13 16:29 | 41.35380 | 48.87053 | 35006 ft | 498 kts | 75° |
| 2026-04-13 16:29 | 41.37705 | 48.95681 | 35022 ft | 496 kts | 75° |
| 2026-04-13 16:30 | 41.40034 | 49.04361 | 35021 ft | 497 kts | 75° |
| 2026-04-13 16:30 | 41.42340 | 49.12984 | 35023 ft | 496 kts | 75° |
| 2026-04-13 16:31 | 41.44640 | 49.21619 | 35023 ft | 497 kts | 75° |
| 2026-04-13 16:31 | 41.46953 | 49.30326 | 35013 ft | 494 kts | 75° |
| 2026-04-13 16:32 | 41.49223 | 49.38909 | 35017 ft | 496 kts | 75° |
| 2026-04-13 16:32 | 41.51517 | 49.47608 | 35028 ft | 496 kts | 75° |
| 2026-04-13 16:33 | 41.53791 | 49.56264 | 35016 ft | 494 kts | 75° |
| 2026-04-13 16:33 | 41.56051 | 49.64895 | 35021 ft | 494 kts | 75° |
| 2026-04-13 16:34 | 41.58300 | 49.73518 | 35023 ft | 494 kts | 76° |
| 2026-04-13 16:34 | 41.60540 | 49.82135 | 35027 ft | 494 kts | 76° |
| 2026-04-13 16:35 | 41.62785 | 49.90801 | 35016 ft | 492 kts | 76° |
| 2026-04-13 16:35 | 41.65013 | 49.99435 | 35017 ft | 494 kts | 76° |
| 2026-04-13 16:36 | 41.67235 | 50.08075 | 35021 ft | 492 kts | 76° |
| 2026-04-13 16:36 | 41.69447 | 50.16708 | 35023 ft | 492 kts | 76° |
| 2026-04-13 16:37 | 41.71658 | 50.25370 | 35023 ft | 493 kts | 76° |
| 2026-04-13 16:37 | 41.73861 | 50.34030 | 35025 ft | 492 kts | 76° |
| 2026-04-13 16:38 | 41.76065 | 50.42727 | 35032 ft | 493 kts | 76° |
| 2026-04-13 16:38 | 41.78253 | 50.51391 | 35023 ft | 493 kts | 76° |
| 2026-04-13 16:39 | 41.80454 | 50.60135 | 35020 ft | 494 kts | 76° |
| 2026-04-13 16:39 | 41.82641 | 50.68859 | 35019 ft | 493 kts | 76° |
| 2026-04-13 16:40 | 41.84808 | 50.77540 | 35024 ft | 493 kts | 76° |
| 2026-04-13 16:40 | 41.86961 | 50.86191 | 35023 ft | 492 kts | 76° |
| 2026-04-13 16:41 | 41.89123 | 50.94916 | 35029 ft | 495 kts | 76° |
| 2026-04-13 16:41 | 41.91286 | 51.03670 | 35023 ft | 494 kts | 76° |
| 2026-04-13 16:42 | 41.93438 | 51.12416 | 35019 ft | 493 kts | 76° |
| 2026-04-13 16:42 | 41.95575 | 51.21135 | 35015 ft | 493 kts | 76° |
| 2026-04-13 16:43 | 41.97715 | 51.29900 | 35015 ft | 494 kts | 76° |
| 2026-04-13 16:43 | 41.99839 | 51.38628 | 35016 ft | 494 kts | 76° |
| 2026-04-13 16:44 | 42.02254 | 51.47269 | 35014 ft | 500 kts | 66° |
| 2026-04-13 16:44 | 42.05952 | 51.55176 | 35013 ft | 505 kts | 60° |
| 2026-04-13 16:45 | 42.09801 | 51.63035 | 35009 ft | 503 kts | 60° |
| 2026-04-13 16:45 | 42.13657 | 51.70965 | 34993 ft | 503 kts | 61° |
| 2026-04-13 16:46 | 42.17430 | 51.78768 | 34989 ft | 502 kts | 61° |
| 2026-04-13 16:46 | 42.21247 | 51.86694 | 34982 ft | 502 kts | 62° |
| 2026-04-13 16:47 | 42.25018 | 51.94551 | 34990 ft | 501 kts | 62° |
| 2026-04-13 16:47 | 42.28815 | 52.02488 | 34977 ft | 501 kts | 62° |
| 2026-04-13 16:48 | 42.32558 | 52.10334 | 34979 ft | 501 kts | 62° |
| 2026-04-13 16:48 | 42.36326 | 52.18253 | 34969 ft | 501 kts | 62° |
| 2026-04-13 16:49 | 42.40100 | 52.26210 | 34965 ft | 502 kts | 61° |
| 2026-04-13 16:49 | 42.43851 | 52.34134 | 34961 ft | 502 kts | 61° |
| 2026-04-13 16:50 | 42.47590 | 52.42059 | 34960 ft | 501 kts | 62° |
| 2026-04-13 16:50 | 42.51333 | 52.50010 | 34954 ft | 501 kts | 61° |
| 2026-04-13 16:51 | 42.55067 | 52.57965 | 34956 ft | 501 kts | 61° |
| 2026-04-13 16:51 | 42.58816 | 52.65974 | 34952 ft | 501 kts | 62° |
| 2026-04-13 16:52 | 42.62552 | 52.73973 | 34951 ft | 501 kts | 62° |
| 2026-04-13 16:52 | 42.66269 | 52.81958 | 34949 ft | 502 kts | 62° |
| 2026-04-13 16:53 | 42.69976 | 52.89941 | 34944 ft | 501 kts | 62° |
| 2026-04-13 16:53 | 42.73687 | 52.97952 | 34944 ft | 502 kts | 62° |
| 2026-04-13 16:54 | 42.77369 | 53.05924 | 34942 ft | 501 kts | 62° |
| 2026-04-13 16:54 | 42.81076 | 53.13970 | 34940 ft | 500 kts | 62° |
| 2026-04-13 16:55 | 42.84754 | 53.21977 | 34944 ft | 501 kts | 62° |
| 2026-04-13 16:55 | 42.88429 | 53.29999 | 34946 ft | 500 kts | 62° |
| 2026-04-13 16:56 | 42.92097 | 53.38026 | 34947 ft | 500 kts | 62° |
| 2026-04-13 16:56 | 42.95773 | 53.46093 | 34950 ft | 500 kts | 62° |
| 2026-04-13 16:57 | 42.99352 | 53.54172 | 34945 ft | 496 kts | 67° |
| 2026-04-13 16:57 | 43.01485 | 53.62979 | 34952 ft | 485 kts | 85° |
| 2026-04-13 16:58 | 43.02265 | 53.72054 | 34956 ft | 483 kts | 89° |
| 2026-04-13 16:58 | 43.02932 | 53.81143 | 34960 ft | 482 kts | 89° |
| 2026-04-13 16:59 | 43.03567 | 53.90211 | 34959 ft | 482 kts | 89° |
| 2026-04-13 16:59 | 43.04184 | 53.99308 | 34962 ft | 482 kts | 89° |
| 2026-04-13 17:00 | 43.04789 | 54.08440 | 34963 ft | 481 kts | 89° |
| 2026-04-13 17:00 | 43.05382 | 54.17552 | 34957 ft | 481 kts | 89° |
| 2026-04-13 17:01 | 43.05966 | 54.26669 | 34960 ft | 482 kts | 89° |
| 2026-04-13 17:01 | 43.06541 | 54.35783 | 34962 ft | 482 kts | 89° |
| 2026-04-13 17:02 | 43.07107 | 54.44857 | 34962 ft | 481 kts | 89° |
| 2026-04-13 17:02 | 43.07665 | 54.53939 | 34958 ft | 482 kts | 89° |
| 2026-04-13 17:03 | 43.08221 | 54.63103 | 34973 ft | 482 kts | 89° |
| 2026-04-13 17:03 | 43.08763 | 54.72162 | 34976 ft | 480 kts | 89° |
| 2026-04-13 17:04 | 43.09301 | 54.81295 | 34981 ft | 482 kts | 89° |
| 2026-04-13 17:04 | 43.09829 | 54.90362 | 34987 ft | 481 kts | 89° |
| 2026-04-13 17:05 | 43.10350 | 54.99429 | 34983 ft | 480 kts | 89° |
| 2026-04-13 17:05 | 43.10867 | 55.08556 | 34981 ft | 480 kts | 89° |
| 2026-04-13 17:06 | 43.11374 | 55.17646 | 35047 ft | 482 kts | 89° |
| 2026-04-13 17:06 | 43.11875 | 55.26751 | 34987 ft | 479 kts | 89° |
| 2026-04-13 17:07 | 43.12368 | 55.35858 | 34993 ft | 480 kts | 89° |
| 2026-04-13 17:07 | 43.12854 | 55.44945 | 34992 ft | 480 kts | 89° |
| 2026-04-13 17:08 | 43.13331 | 55.54014 | 34995 ft | 481 kts | 89° |
| 2026-04-13 17:08 | 43.13804 | 55.63142 | 34996 ft | 481 kts | 89° |
| 2026-04-13 17:09 | 43.14268 | 55.72243 | 34996 ft | 481 kts | 90° |
| 2026-04-13 17:09 | 43.14724 | 55.81325 | 34997 ft | 480 kts | 90° |
| 2026-04-13 17:10 | 43.15175 | 55.90461 | 35003 ft | 481 kts | 90° |
| 2026-04-13 17:10 | 43.15693 | 55.99544 | 34998 ft | 484 kts | 84° |
| 2026-04-13 17:11 | 43.17392 | 56.08563 | 35010 ft | 488 kts | 77° |
| 2026-04-13 17:11 | 43.19288 | 56.17416 | 35009 ft | 487 kts | 77° |
| 2026-04-13 17:12 | 43.21181 | 56.26352 | 35007 ft | 486 kts | 77° |
| 2026-04-13 17:12 | 43.23058 | 56.35285 | 35009 ft | 488 kts | 77° |
| 2026-04-13 17:13 | 43.24919 | 56.44196 | 35004 ft | 487 kts | 77° |
| 2026-04-13 17:13 | 43.26768 | 56.53097 | 35008 ft | 487 kts | 77° |
| 2026-04-13 17:14 | 43.28609 | 56.62005 | 35009 ft | 488 kts | 77° |
| 2026-04-13 17:14 | 43.30452 | 56.70969 | 35000 ft | 486 kts | 77° |
| 2026-04-13 17:15 | 43.32275 | 56.79873 | 35015 ft | 488 kts | 77° |
| 2026-04-13 17:15 | 43.34108 | 56.88861 | 35006 ft | 487 kts | 77° |
| 2026-04-13 17:16 | 43.35915 | 56.97770 | 35001 ft | 486 kts | 77° |
| 2026-04-13 17:16 | 43.37678 | 57.06498 | 35000 ft | 486 kts | 77° |
| 2026-04-13 17:17 | 43.39477 | 57.15442 | 35006 ft | 487 kts | 77° |
| 2026-04-13 17:17 | 43.41279 | 57.24441 | 34995 ft | 486 kts | 77° |
| 2026-04-13 17:18 | 43.43059 | 57.33371 | 34988 ft | 488 kts | 77° |
| 2026-04-13 17:18 | 43.44850 | 57.42400 | 34978 ft | 487 kts | 77° |
| 2026-04-13 17:19 | 43.46616 | 57.51339 | 34980 ft | 489 kts | 77° |
| 2026-04-13 17:19 | 43.48392 | 57.60373 | 34980 ft | 488 kts | 77° |
| 2026-04-13 17:20 | 43.50147 | 57.69339 | 34971 ft | 490 kts | 78° |
| 2026-04-13 17:20 | 43.51907 | 57.78371 | 34972 ft | 487 kts | 78° |
| 2026-04-13 17:21 | 43.53660 | 57.87411 | 34979 ft | 490 kts | 78° |
| 2026-04-13 17:21 | 43.55403 | 57.96442 | 34969 ft | 489 kts | 78° |
| 2026-04-13 17:22 | 43.57144 | 58.05503 | 34983 ft | 488 kts | 78° |
| 2026-04-13 17:22 | 43.58879 | 58.14574 | 34991 ft | 490 kts | 77° |
| 2026-04-13 17:23 | 43.60600 | 58.23618 | 34995 ft | 490 kts | 77° |
| 2026-04-13 17:23 | 43.62313 | 58.32662 | 34990 ft | 489 kts | 77° |
| 2026-04-13 17:24 | 43.64020 | 58.41792 | 34988 ft | 490 kts | 78° |
| 2026-04-13 17:24 | 43.65687 | 58.50870 | 34975 ft | 489 kts | 78° |
| 2026-04-13 17:25 | 43.67349 | 58.59965 | 35001 ft | 490 kts | 77° |
| 2026-04-13 17:25 | 43.69009 | 58.69083 | 34995 ft | 490 kts | 78° |
| 2026-04-13 17:26 | 43.70661 | 58.78202 | 34994 ft | 490 kts | 78° |
| 2026-04-13 17:26 | 43.72298 | 58.87280 | 35004 ft | 490 kts | 78° |
| 2026-04-13 17:27 | 43.74759 | 59.01012 | 35005 ft | 490 kts | 78° |
| 2026-04-13 17:27 | 43.76405 | 59.10103 | 34998 ft | 489 kts | 77° |
| 2026-04-13 17:28 | 43.78075 | 59.19228 | 35010 ft | 494 kts | 77° |
| 2026-04-13 17:28 | 43.79747 | 59.28410 | 35004 ft | 492 kts | 77° |
| 2026-04-13 17:29 | 43.81422 | 59.37663 | 35007 ft | 496 kts | 77° |
| 2026-04-13 17:29 | 43.83088 | 59.46920 | 35010 ft | 497 kts | 77° |
| 2026-04-13 17:30 | 43.84741 | 59.56152 | 35011 ft | 498 kts | 77° |
| 2026-04-13 17:30 | 43.86411 | 59.65527 | 35013 ft | 501 kts | 78° |
| 2026-04-13 17:31 | 43.88057 | 59.74877 | 35009 ft | 500 kts | 78° |
| 2026-04-13 17:31 | 43.89663 | 59.84208 | 35005 ft | 502 kts | 78° |
| 2026-04-13 17:32 | 43.91285 | 59.93673 | 35006 ft | 506 kts | 78° |
| 2026-04-13 17:32 | 43.92894 | 60.03107 | 35015 ft | 505 kts | 78° |
| 2026-04-13 17:33 | 43.94511 | 60.12635 | 35016 ft | 506 kts | 78° |
| 2026-04-13 17:33 | 43.96097 | 60.22033 | 35018 ft | 507 kts | 77° |
| 2026-04-13 17:34 | 43.98488 | 60.36286 | 35016 ft | 506 kts | 77° |
| 2026-04-13 17:35 | 44.00066 | 60.45766 | 35019 ft | 505 kts | 77° |
| 2026-04-13 17:35 | 44.01635 | 60.55242 | 35022 ft | 505 kts | 77° |
| 2026-04-13 17:36 | 44.03208 | 60.64794 | 35023 ft | 506 kts | 76° |
| 2026-04-13 17:36 | 44.04760 | 60.74267 | 35020 ft | 505 kts | 77° |
| 2026-04-13 17:37 | 44.06302 | 60.83736 | 35022 ft | 504 kts | 77° |
| 2026-04-13 17:37 | 44.07841 | 60.93241 | 35027 ft | 504 kts | 77° |
| 2026-04-13 17:38 | 44.09372 | 61.02747 | 35021 ft | 504 kts | 77° |
| 2026-04-13 17:38 | 44.10885 | 61.12190 | 35023 ft | 504 kts | 76° |
| 2026-04-13 17:39 | 44.12402 | 61.21720 | 35025 ft | 505 kts | 76° |
| 2026-04-13 17:39 | 44.13879 | 61.31203 | 35021 ft | 504 kts | 79° |
| 2026-04-13 17:40 | 44.14498 | 61.40939 | 35031 ft | 507 kts | 85° |
| 2026-04-13 17:40 | 44.14929 | 61.50650 | 35030 ft | 506 kts | 85° |
| 2026-04-13 17:41 | 44.15354 | 61.60466 | 35029 ft | 508 kts | 85° |
| 2026-04-13 17:41 | 44.15771 | 61.70224 | 35024 ft | 508 kts | 86° |
| 2026-04-13 17:42 | 44.16181 | 61.79980 | 35029 ft | 506 kts | 86° |
| 2026-04-13 17:42 | 44.16586 | 61.89822 | 35026 ft | 506 kts | 86° |
| 2026-04-13 17:43 | 44.16978 | 61.99578 | 35027 ft | 508 kts | 86° |
| 2026-04-13 17:43 | 44.17364 | 62.09369 | 35032 ft | 508 kts | 85° |
| 2026-04-13 17:44 | 44.17741 | 62.19149 | 35035 ft | 508 kts | 85° |
| 2026-04-13 17:44 | 44.18110 | 62.28957 | 35029 ft | 508 kts | 85° |
| 2026-04-13 17:45 | 44.18461 | 62.38761 | 35033 ft | 508 kts | 85° |
| 2026-04-13 17:45 | 44.18795 | 62.48518 | 35038 ft | 506 kts | 85° |
| 2026-04-13 17:46 | 44.19124 | 62.58328 | 35041 ft | 507 kts | 85° |
| 2026-04-13 17:46 | 44.19446 | 62.68179 | 35031 ft | 507 kts | 86° |
| 2026-04-13 17:47 | 44.19758 | 62.77973 | 35035 ft | 508 kts | 86° |
| 2026-04-13 17:47 | 44.20061 | 62.87767 | 35034 ft | 506 kts | 86° |
| 2026-04-13 17:48 | 44.20355 | 62.97536 | 35032 ft | 506 kts | 85° |
| 2026-04-13 17:48 | 44.20643 | 63.07384 | 35035 ft | 507 kts | 85° |
| 2026-04-13 17:49 | 44.20920 | 63.17137 | 35041 ft | 506 kts | 85° |
| 2026-04-13 17:49 | 44.21073 | 63.26963 | 35040 ft | 507 kts | 86° |
| 2026-04-13 17:50 | 44.21185 | 63.36737 | 35045 ft | 507 kts | 86° |
| 2026-04-13 17:50 | 44.21294 | 63.46561 | 35049 ft | 509 kts | 86° |
| 2026-04-13 17:51 | 44.21397 | 63.56425 | 35054 ft | 507 kts | 86° |
| 2026-04-13 17:51 | 44.21493 | 63.66269 | 35056 ft | 510 kts | 87° |
| 2026-04-13 17:52 | 44.21581 | 63.76083 | 35046 ft | 510 kts | 87° |
| 2026-04-13 17:52 | 44.21661 | 63.85942 | 35054 ft | 508 kts | 86° |
| 2026-04-13 17:53 | 44.21721 | 63.94082 | 35054 ft | 510 kts | 86° |
| 2026-04-13 17:53 | 44.21797 | 64.05587 | 35057 ft | 510 kts | 86° |
| 2026-04-13 17:54 | 44.21852 | 64.15445 | 35055 ft | 509 kts | 86° |
| 2026-04-13 17:54 | 44.22147 | 64.25271 | 35056 ft | 507 kts | 83° |
| 2026-04-13 17:55 | 44.22633 | 64.35020 | 35059 ft | 507 kts | 83° |
| 2026-04-13 17:55 | 44.23097 | 64.44804 | 35053 ft | 507 kts | 83° |
| 2026-04-13 17:56 | 44.23541 | 64.54576 | 35056 ft | 506 kts | 83° |
| 2026-04-13 17:56 | 44.23972 | 64.64365 | 35057 ft | 506 kts | 83° |
| 2026-04-13 17:57 | 44.24390 | 64.74123 | 35045 ft | 508 kts | 84° |
| 2026-04-13 17:57 | 44.24799 | 64.83925 | 35046 ft | 506 kts | 84° |
| 2026-04-13 17:58 | 44.25172 | 64.93742 | 35042 ft | 507 kts | 84° |
| 2026-04-13 17:58 | 44.25533 | 65.03547 | 35052 ft | 505 kts | 84° |
| 2026-04-13 17:59 | 44.25884 | 65.13260 | 35048 ft | 506 kts | 84° |
| 2026-04-13 17:59 | 44.26230 | 65.23075 | 35040 ft | 505 kts | 84° |
| 2026-04-13 18:00 | 44.26567 | 65.32855 | 35046 ft | 503 kts | 84° |
| 2026-04-13 18:00 | 44.26893 | 65.42555 | 35047 ft | 503 kts | 84° |
| 2026-04-13 18:01 | 44.27212 | 65.52312 | 35041 ft | 503 kts | 84° |
| 2026-04-13 18:01 | 44.27521 | 65.62003 | 35042 ft | 504 kts | 84° |
| 2026-04-13 18:02 | 44.27822 | 65.71699 | 35039 ft | 503 kts | 85° |
| 2026-04-13 18:02 | 44.28114 | 65.81383 | 35049 ft | 501 kts | 85° |
| 2026-04-13 18:03 | 44.28400 | 65.91107 | 35046 ft | 501 kts | 85° |
| 2026-04-13 18:03 | 44.28675 | 66.00760 | 35055 ft | 499 kts | 85° |
| 2026-04-13 18:04 | 44.28942 | 66.10420 | 35049 ft | 499 kts | 85° |
| 2026-04-13 18:04 | 44.29201 | 66.20064 | 35048 ft | 500 kts | 85° |
| 2026-04-13 18:05 | 44.29449 | 66.29642 | 35051 ft | 499 kts | 85° |
| 2026-04-13 18:05 | 44.29692 | 66.39274 | 35055 ft | 497 kts | 85° |
| 2026-04-13 18:06 | 44.29861 | 66.48927 | 35057 ft | 498 kts | 86° |
| 2026-04-13 18:06 | 44.29927 | 66.58541 | 35058 ft | 497 kts | 87° |
| 2026-04-13 18:07 | 44.29990 | 66.68150 | 35043 ft | 498 kts | 88° |
| 2026-04-13 18:07 | 44.30048 | 66.77818 | 35060 ft | 496 kts | 88° |
| 2026-04-13 18:08 | 44.30099 | 66.87402 | 35050 ft | 497 kts | 88° |
| 2026-04-13 18:08 | 44.30144 | 66.97021 | 35075 ft | 496 kts | 88° |
| 2026-04-13 18:09 | 44.30181 | 67.06599 | 35072 ft | 495 kts | 88° |
| 2026-04-13 18:09 | 44.30210 | 67.16205 | 35081 ft | 496 kts | 88° |
| 2026-04-13 18:10 | 44.30232 | 67.25781 | 35087 ft | 495 kts | 88° |
| 2026-04-13 18:10 | 44.30246 | 67.35399 | 35090 ft | 495 kts | 88° |
| 2026-04-13 18:11 | 44.30251 | 67.44991 | 35097 ft | 497 kts | 88° |
| 2026-04-13 18:11 | 44.29698 | 67.54530 | 35110 ft | 497 kts | 102° |
| 2026-04-13 18:12 | 44.27806 | 67.63771 | 35127 ft | 498 kts | 105° |
| 2026-04-13 18:12 | 44.25800 | 67.73008 | 35127 ft | 499 kts | 107° |
| 2026-04-13 18:13 | 44.23781 | 67.82237 | 35129 ft | 499 kts | 107° |
| 2026-04-13 18:13 | 44.21742 | 67.91504 | 35120 ft | 498 kts | 107° |
| 2026-04-13 18:14 | 44.19709 | 68.00698 | 35118 ft | 499 kts | 107° |
| 2026-04-13 18:14 | 44.17673 | 68.09865 | 35120 ft | 499 kts | 107° |
| 2026-04-13 18:15 | 44.15618 | 68.19070 | 35119 ft | 498 kts | 107° |
| 2026-04-13 18:15 | 44.13546 | 68.28302 | 35119 ft | 499 kts | 107° |
| 2026-04-13 18:16 | 44.11457 | 68.37489 | 35115 ft | 500 kts | 107° |
| 2026-04-13 18:16 | 44.09373 | 68.46616 | 35113 ft | 499 kts | 107° |
| 2026-04-13 18:17 | 44.07270 | 68.55791 | 35104 ft | 499 kts | 107° |
| 2026-04-13 18:17 | 44.05166 | 68.64932 | 35110 ft | 499 kts | 107° |
| 2026-04-13 18:18 | 44.03046 | 68.74104 | 35102 ft | 499 kts | 108° |
| 2026-04-13 18:18 | 44.00925 | 68.83235 | 35107 ft | 497 kts | 108° |
| 2026-04-13 18:19 | 43.98803 | 68.92334 | 35103 ft | 499 kts | 108° |
| 2026-04-13 18:19 | 43.96662 | 69.01472 | 35105 ft | 498 kts | 108° |
| 2026-04-13 18:20 | 43.94521 | 69.10573 | 35096 ft | 498 kts | 108° |
| 2026-04-13 18:20 | 43.92364 | 69.19710 | 35104 ft | 498 kts | 108° |
| 2026-04-13 18:21 | 43.90219 | 69.28754 | 35104 ft | 498 kts | 108° |
| 2026-04-13 18:21 | 43.88041 | 69.37901 | 35095 ft | 497 kts | 108° |
| 2026-04-13 18:22 | 43.85884 | 69.46926 | 35094 ft | 497 kts | 108° |
| 2026-04-13 18:22 | 43.83714 | 69.55968 | 35096 ft | 496 kts | 108° |
| 2026-04-13 18:23 | 43.81530 | 69.65031 | 35090 ft | 497 kts | 109° |
| 2026-04-13 18:23 | 43.79332 | 69.74113 | 35087 ft | 496 kts | 109° |
| 2026-04-13 18:24 | 43.77137 | 69.83151 | 35092 ft | 496 kts | 109° |
| 2026-04-13 18:24 | 43.74949 | 69.92123 | 35094 ft | 496 kts | 109° |
| 2026-04-13 18:25 | 43.72735 | 70.01166 | 35096 ft | 495 kts | 109° |
| 2026-04-13 18:25 | 43.70522 | 70.10165 | 35099 ft | 495 kts | 109° |
| 2026-04-13 18:26 | 43.68306 | 70.19148 | 35099 ft | 496 kts | 109° |
| 2026-04-13 18:26 | 43.66076 | 70.28150 | 35099 ft | 496 kts | 109° |
| 2026-04-13 18:27 | 43.63845 | 70.37116 | 35099 ft | 496 kts | 109° |
| 2026-04-13 18:27 | 43.61594 | 70.46133 | 35098 ft | 496 kts | 109° |
| 2026-04-13 18:28 | 43.59343 | 70.55115 | 35099 ft | 496 kts | 109° |
| 2026-04-13 18:28 | 43.57093 | 70.64057 | 35097 ft | 496 kts | 109° |
| 2026-04-13 18:29 | 43.54835 | 70.72995 | 35090 ft | 496 kts | 110° |
| 2026-04-13 18:29 | 43.52627 | 70.81995 | 35083 ft | 496 kts | 104° |
| 2026-04-13 18:30 | 43.51878 | 70.91376 | 35088 ft | 496 kts | 86° |
| 2026-04-13 18:30 | 43.52555 | 71.00892 | 35090 ft | 496 kts | 83° |
| 2026-04-13 18:31 | 43.53288 | 71.10327 | 35091 ft | 496 kts | 83° |
| 2026-04-13 18:31 | 43.53994 | 71.19726 | 35094 ft | 496 kts | 83° |
| 2026-04-13 18:32 | 43.54686 | 71.29184 | 35095 ft | 496 kts | 83° |
| 2026-04-13 18:32 | 43.55362 | 71.38592 | 35097 ft | 496 kts | 83° |
| 2026-04-13 18:33 | 43.56026 | 71.47990 | 35099 ft | 496 kts | 83° |
| 2026-04-13 18:33 | 43.56685 | 71.57445 | 35100 ft | 495 kts | 83° |
| 2026-04-13 18:34 | 43.57655 | 71.71600 | 35099 ft | 496 kts | 84° |
| 2026-04-13 18:34 | 43.58293 | 71.81067 | 35100 ft | 496 kts | 84° |
| 2026-04-13 18:35 | 43.58921 | 71.90494 | 35103 ft | 496 kts | 84° |
| 2026-04-13 18:35 | 43.59543 | 71.99957 | 35105 ft | 496 kts | 84° |
| 2026-04-13 18:36 | 43.60153 | 72.09367 | 35108 ft | 495 kts | 84° |
| 2026-04-13 18:36 | 43.60761 | 72.18851 | 35112 ft | 496 kts | 84° |
| 2026-04-13 18:37 | 43.61359 | 72.28313 | 35112 ft | 495 kts | 84° |
| 2026-04-13 18:37 | 43.61946 | 72.37724 | 35109 ft | 495 kts | 84° |
| 2026-04-13 18:38 | 43.62530 | 72.47217 | 35110 ft | 495 kts | 84° |
| 2026-04-13 18:38 | 43.63103 | 72.56658 | 35112 ft | 495 kts | 84° |
| 2026-04-13 18:39 | 43.63665 | 72.66048 | 35111 ft | 495 kts | 84° |
| 2026-04-13 18:39 | 43.64223 | 72.75496 | 35110 ft | 495 kts | 84° |
| 2026-04-13 18:40 | 43.64776 | 72.84995 | 35109 ft | 494 kts | 84° |
| 2026-04-13 18:40 | 43.65317 | 72.94425 | 35107 ft | 495 kts | 84° |
| 2026-04-13 18:41 | 43.65850 | 73.03863 | 35111 ft | 494 kts | 84° |
| 2026-04-13 18:41 | 43.66380 | 73.13369 | 35108 ft | 494 kts | 84° |
| 2026-04-13 18:42 | 43.66896 | 73.22766 | 35109 ft | 495 kts | 84° |
| 2026-04-13 18:42 | 43.67407 | 73.32232 | 35109 ft | 494 kts | 84° |
| 2026-04-13 18:43 | 43.67909 | 73.41659 | 35106 ft | 494 kts | 84° |
| 2026-04-13 18:43 | 43.68405 | 73.51145 | 35106 ft | 494 kts | 84° |
| 2026-04-13 18:44 | 43.68890 | 73.60554 | 35098 ft | 494 kts | 84° |
| 2026-04-13 18:44 | 43.69371 | 73.70038 | 35100 ft | 494 kts | 85° |
| 2026-04-13 18:45 | 43.69470 | 73.79518 | 35102 ft | 495 kts | 91° |
| 2026-04-13 18:45 | 43.69215 | 73.89001 | 35104 ft | 495 kts | 91° |
| 2026-04-13 18:46 | 43.68946 | 73.98465 | 35108 ft | 495 kts | 91° |
| 2026-04-13 18:46 | 43.68667 | 74.07948 | 35113 ft | 495 kts | 91° |
| 2026-04-13 18:47 | 43.68380 | 74.17445 | 35126 ft | 495 kts | 91° |
| 2026-04-13 18:47 | 43.68092 | 74.26926 | 35138 ft | 495 kts | 91° |
| 2026-04-13 18:48 | 43.67802 | 74.36412 | 35144 ft | 494 kts | 91° |
| 2026-04-13 18:48 | 43.67505 | 74.45866 | 35158 ft | 494 kts | 91° |
| 2026-04-13 18:49 | 43.67199 | 74.55348 | 35156 ft | 494 kts | 91° |
| 2026-04-13 18:49 | 43.66886 | 74.64793 | 35152 ft | 494 kts | 91° |
| 2026-04-13 18:50 | 43.66565 | 74.74247 | 35173 ft | 494 kts | 92° |
| 2026-04-13 18:50 | 43.66235 | 74.83710 | 35163 ft | 493 kts | 92° |
| 2026-04-13 18:51 | 43.65899 | 74.93162 | 35167 ft | 494 kts | 92° |
| 2026-04-13 18:51 | 43.65553 | 75.02644 | 35164 ft | 494 kts | 92° |
| 2026-04-13 18:52 | 43.65199 | 75.12142 | 35164 ft | 494 kts | 92° |
| 2026-04-13 18:52 | 43.64838 | 75.21594 | 35167 ft | 493 kts | 92° |
| 2026-04-13 18:53 | 43.64471 | 75.31010 | 35168 ft | 494 kts | 92° |
| 2026-04-13 18:53 | 43.64096 | 75.40454 | 35163 ft | 494 kts | 92° |
| 2026-04-13 18:54 | 43.63712 | 75.49907 | 35162 ft | 494 kts | 92° |
| 2026-04-13 18:54 | 43.63318 | 75.59390 | 35168 ft | 494 kts | 92° |
| 2026-04-13 18:55 | 43.62917 | 75.68801 | 35163 ft | 494 kts | 93° |
| 2026-04-13 18:55 | 43.62507 | 75.78265 | 35161 ft | 494 kts | 93° |
| 2026-04-13 18:56 | 43.62090 | 75.87714 | 35167 ft | 494 kts | 93° |
| 2026-04-13 18:56 | 43.61665 | 75.97160 | 35167 ft | 494 kts | 93° |
| 2026-04-13 18:57 | 43.61230 | 76.06639 | 35162 ft | 495 kts | 93° |
| 2026-04-13 18:57 | 43.60790 | 76.16083 | 35173 ft | 494 kts | 93° |
| 2026-04-13 18:58 | 43.60340 | 76.25565 | 35173 ft | 495 kts | 93° |
| 2026-04-13 18:58 | 43.59905 | 76.35003 | 35160 ft | 495 kts | 91° |
| 2026-04-13 18:59 | 43.59884 | 76.44483 | 35184 ft | 494 kts | 89° |
| 2026-04-13 18:59 | 43.59875 | 76.53950 | 35187 ft | 495 kts | 89° |
| 2026-04-13 19:00 | 43.59842 | 76.63488 | 35183 ft | 495 kts | 89° |
| 2026-04-13 19:00 | 43.59794 | 76.72948 | 35180 ft | 496 kts | 90° |
| 2026-04-13 19:01 | 43.59732 | 76.82426 | 35187 ft | 496 kts | 90° |
| 2026-04-13 19:01 | 43.59649 | 76.91956 | 35173 ft | 496 kts | 90° |
| 2026-04-13 19:02 | 43.59559 | 77.01431 | 35169 ft | 495 kts | 90° |
| 2026-04-13 19:02 | 43.59467 | 77.10898 | 35175 ft | 496 kts | 90° |
| 2026-04-13 19:03 | 43.59312 | 77.20381 | 35180 ft | 496 kts | 92° |
| 2026-04-13 19:03 | 43.58978 | 77.29894 | 35162 ft | 496 kts | 92° |
| 2026-04-13 19:04 | 43.58642 | 77.39342 | 35204 ft | 497 kts | 92° |
| 2026-04-13 19:04 | 43.58301 | 77.48864 | 35188 ft | 496 kts | 92° |
| 2026-04-13 19:05 | 43.58093 | 77.58315 | 35184 ft | 497 kts | 90° |
| 2026-04-13 19:05 | 43.57991 | 77.67803 | 35206 ft | 496 kts | 91° |
| 2026-04-13 19:06 | 43.57874 | 77.77317 | 35178 ft | 497 kts | 91° |
| 2026-04-13 19:06 | 43.57744 | 77.86839 | 35190 ft | 496 kts | 91° |
| 2026-04-13 19:07 | 43.57603 | 77.96357 | 35199 ft | 497 kts | 91° |
| 2026-04-13 19:07 | 43.57454 | 78.05840 | 35182 ft | 497 kts | 91° |
| 2026-04-13 19:08 | 43.57297 | 78.15340 | 35179 ft | 498 kts | 91° |
| 2026-04-13 19:08 | 43.57133 | 78.24854 | 35187 ft | 497 kts | 91° |
| 2026-04-13 19:09 | 43.56959 | 78.34423 | 35184 ft | 497 kts | 91° |
| 2026-04-13 19:09 | 43.56779 | 78.43913 | 35193 ft | 497 kts | 91° |
| 2026-04-13 19:10 | 43.56591 | 78.53394 | 35178 ft | 498 kts | 91° |
| 2026-04-13 19:10 | 43.56393 | 78.62964 | 35202 ft | 497 kts | 91° |
| 2026-04-13 19:11 | 43.56189 | 78.72481 | 35202 ft | 498 kts | 91° |
| 2026-04-13 19:11 | 43.55977 | 78.81959 | 35179 ft | 498 kts | 91° |
| 2026-04-13 19:12 | 43.55756 | 78.91496 | 35186 ft | 497 kts | 92° |
| 2026-04-13 19:12 | 43.55529 | 79.00989 | 35174 ft | 498 kts | 91° |
| 2026-04-13 19:13 | 43.55291 | 79.10546 | 35159 ft | 498 kts | 92° |
| 2026-04-13 19:13 | 43.55047 | 79.20077 | 35153 ft | 498 kts | 92° |
| 2026-04-13 19:14 | 43.54794 | 79.29613 | 35144 ft | 499 kts | 91° |
| 2026-04-13 19:14 | 43.54534 | 79.39098 | 35138 ft | 499 kts | 92° |
| 2026-04-13 19:15 | 43.54266 | 79.48621 | 35137 ft | 499 kts | 91° |
| 2026-04-13 19:15 | 43.53989 | 79.58170 | 35137 ft | 499 kts | 91° |
| 2026-04-13 19:16 | 43.53704 | 79.67741 | 35141 ft | 499 kts | 92° |
| 2026-04-13 19:16 | 43.53412 | 79.77261 | 35125 ft | 500 kts | 92° |
| 2026-04-13 19:17 | 43.53110 | 79.86855 | 35142 ft | 500 kts | 92° |
| 2026-04-13 19:17 | 43.52801 | 79.96411 | 35129 ft | 499 kts | 92° |
| 2026-04-13 19:18 | 43.52485 | 80.05952 | 35138 ft | 500 kts | 92° |
| 2026-04-13 19:18 | 43.52163 | 80.15460 | 35149 ft | 500 kts | 92° |
| 2026-04-13 19:19 | 43.51830 | 80.25015 | 35135 ft | 500 kts | 92° |
| 2026-04-13 19:19 | 43.51488 | 80.34618 | 35153 ft | 501 kts | 92° |
| 2026-04-13 19:20 | 43.51139 | 80.44196 | 35150 ft | 501 kts | 92° |
| 2026-04-13 19:20 | 43.50783 | 80.53725 | 35157 ft | 501 kts | 92° |
| 2026-04-13 19:21 | 43.50417 | 80.63319 | 35156 ft | 502 kts | 92° |
| 2026-04-13 19:21 | 43.50045 | 80.72871 | 35154 ft | 501 kts | 93° |
| 2026-04-13 19:22 | 43.49854 | 80.82470 | 35149 ft | 502 kts | 90° |
| 2026-04-13 19:22 | 43.49734 | 80.92062 | 35167 ft | 501 kts | 90° |
| 2026-04-13 19:23 | 43.49597 | 81.01659 | 35162 ft | 501 kts | 90° |
| 2026-04-13 19:23 | 43.49446 | 81.11293 | 35161 ft | 501 kts | 91° |
| 2026-04-13 19:24 | 43.49284 | 81.20895 | 35172 ft | 503 kts | 91° |
| 2026-04-13 19:24 | 43.49113 | 81.30457 | 35180 ft | 502 kts | 90° |
| 2026-04-13 19:25 | 43.48934 | 81.40028 | 35182 ft | 502 kts | 91° |
| 2026-04-13 19:25 | 43.48745 | 81.49644 | 35180 ft | 502 kts | 90° |
| 2026-04-13 19:26 | 43.48547 | 81.59258 | 35194 ft | 502 kts | 90° |
| 2026-04-13 19:26 | 43.48342 | 81.68875 | 35182 ft | 503 kts | 91° |
| 2026-04-13 19:27 | 43.48119 | 81.78439 | 35186 ft | 503 kts | 91° |
| 2026-04-13 19:27 | 43.47883 | 81.88017 | 35175 ft | 503 kts | 91° |
| 2026-04-13 19:28 | 43.47638 | 81.97663 | 35173 ft | 503 kts | 91° |
| 2026-04-13 19:28 | 43.47387 | 82.07240 | 35176 ft | 503 kts | 91° |
| 2026-04-13 19:29 | 43.47126 | 82.16880 | 35175 ft | 503 kts | 91° |
| 2026-04-13 19:29 | 43.46859 | 82.26467 | 35188 ft | 503 kts | 91° |
| 2026-04-13 19:30 | 43.46581 | 82.36142 | 35201 ft | 503 kts | 91° |
| 2026-04-13 19:30 | 43.46298 | 82.45721 | 35201 ft | 503 kts | 91° |
| 2026-04-13 19:31 | 43.46006 | 82.55325 | 35224 ft | 504 kts | 91° |
| 2026-04-13 19:31 | 43.45706 | 82.64939 | 35241 ft | 504 kts | 91° |
| 2026-04-13 19:32 | 43.45397 | 82.74571 | 35241 ft | 503 kts | 92° |
| 2026-04-13 19:32 | 43.45083 | 82.84124 | 35264 ft | 504 kts | 92° |
| 2026-04-13 19:33 | 43.44756 | 82.93797 | 35278 ft | 504 kts | 92° |
| 2026-04-13 19:34 | 43.44257 | 83.08157 | 35302 ft | 504 kts | 92° |
| 2026-04-13 19:34 | 43.43911 | 83.17792 | 35311 ft | 504 kts | 92° |
| 2026-04-13 19:35 | 43.43561 | 83.27333 | 35321 ft | 503 kts | 92° |
| 2026-04-13 19:35 | 43.43200 | 83.36958 | 35324 ft | 504 kts | 92° |
| 2026-04-13 19:36 | 43.42535 | 83.46529 | 35334 ft | 504 kts | 96° |
| 2026-04-13 19:36 | 43.41696 | 83.56052 | 35338 ft | 503 kts | 96° |
| 2026-04-13 19:37 | 43.40863 | 83.65623 | 35344 ft | 503 kts | 96° |
| 2026-04-13 19:37 | 43.40037 | 83.75143 | 35343 ft | 503 kts | 96° |
| 2026-04-13 19:38 | 43.39208 | 83.84660 | 35358 ft | 502 kts | 96° |
| 2026-04-13 19:38 | 43.38375 | 83.94175 | 35354 ft | 503 kts | 96° |
| 2026-04-13 19:39 | 43.37537 | 84.03664 | 35362 ft | 503 kts | 96° |
| 2026-04-13 19:39 | 43.36690 | 84.13181 | 35355 ft | 502 kts | 96° |
| 2026-04-13 19:40 | 43.35839 | 84.22650 | 35338 ft | 502 kts | 96° |
| 2026-04-13 19:40 | 43.34978 | 84.32151 | 35323 ft | 502 kts | 96° |
| 2026-04-13 19:41 | 43.34101 | 84.41644 | 35319 ft | 502 kts | 96° |
| 2026-04-13 19:41 | 43.33203 | 84.51125 | 35308 ft | 502 kts | 96° |
| 2026-04-13 19:42 | 43.31840 | 84.65347 | 35304 ft | 503 kts | 97° |
| 2026-04-13 19:42 | 43.30922 | 84.74828 | 35291 ft | 501 kts | 97° |
| 2026-04-13 19:43 | 43.29995 | 84.84322 | 35286 ft | 502 kts | 97° |
| 2026-04-13 19:43 | 43.29065 | 84.93766 | 35252 ft | 502 kts | 97° |
| 2026-04-13 19:44 | 43.28124 | 85.03237 | 35243 ft | 501 kts | 97° |
| 2026-04-13 19:44 | 43.27177 | 85.12692 | 35249 ft | 502 kts | 97° |
| 2026-04-13 19:45 | 43.26225 | 85.22118 | 35230 ft | 501 kts | 97° |
| 2026-04-13 19:45 | 43.25260 | 85.31584 | 35227 ft | 501 kts | 97° |
| 2026-04-13 19:46 | 43.24289 | 85.41029 | 35226 ft | 501 kts | 97° |
| 2026-04-13 19:46 | 43.23314 | 85.50445 | 35220 ft | 500 kts | 97° |
| 2026-04-13 19:47 | 43.22326 | 85.59902 | 35220 ft | 500 kts | 97° |
| 2026-04-13 19:47 | 43.21334 | 85.69321 | 35247 ft | 501 kts | 98° |
| 2026-04-13 19:48 | 43.20332 | 85.78763 | 35258 ft | 500 kts | 98° |
| 2026-04-13 19:48 | 43.19400 | 85.88165 | 35254 ft | 499 kts | 92° |
| 2026-04-13 19:49 | 43.19981 | 85.97547 | 35246 ft | 495 kts | 74° |
| 2026-04-13 19:49 | 43.22525 | 86.06132 | 35274 ft | 489 kts | 56° |
| 2026-04-13 19:50 | 43.26238 | 86.13890 | 35295 ft | 487 kts | 53° |
| 2026-04-13 19:50 | 43.29989 | 86.21613 | 35306 ft | 487 kts | 53° |
| 2026-04-13 19:51 | 43.33755 | 86.29307 | 35316 ft | 487 kts | 53° |
| 2026-04-13 19:51 | 43.37510 | 86.37009 | 35300 ft | 487 kts | 53° |
| 2026-04-13 19:52 | 43.41254 | 86.44720 | 35307 ft | 487 kts | 53° |
| 2026-04-13 19:52 | 43.45033 | 86.52480 | 35329 ft | 488 kts | 53° |
| 2026-04-13 19:53 | 43.48797 | 86.60207 | 35303 ft | 486 kts | 52° |
| 2026-04-13 19:53 | 43.52549 | 86.67934 | 35307 ft | 486 kts | 53° |
| 2026-04-13 19:54 | 43.56286 | 86.75697 | 35281 ft | 487 kts | 54° |
| 2026-04-13 19:54 | 43.59987 | 86.83515 | 35271 ft | 488 kts | 54° |
| 2026-04-13 19:55 | 43.63674 | 86.91322 | 35261 ft | 486 kts | 54° |
| 2026-04-13 19:55 | 43.67351 | 86.99121 | 35254 ft | 487 kts | 54° |
| 2026-04-13 19:56 | 43.71027 | 87.06940 | 35254 ft | 487 kts | 54° |
| 2026-04-13 19:56 | 43.74716 | 87.14808 | 35233 ft | 487 kts | 54° |
| 2026-04-13 19:57 | 43.78375 | 87.22646 | 35181 ft | 487 kts | 54° |
| 2026-04-13 19:57 | 43.82044 | 87.30527 | 35181 ft | 487 kts | 54° |
| 2026-04-13 19:58 | 43.85684 | 87.38366 | 35182 ft | 487 kts | 54° |
| 2026-04-13 19:58 | 43.89325 | 87.46227 | 35159 ft | 487 kts | 54° |
| 2026-04-13 19:59 | 43.93049 | 87.54044 | 35160 ft | 485 kts | 49° |
| 2026-04-13 19:59 | 43.97161 | 87.61437 | 35158 ft | 485 kts | 48° |
| 2026-04-13 20:00 | 44.01265 | 87.68853 | 35140 ft | 486 kts | 49° |
| 2026-04-13 20:00 | 44.05353 | 87.76302 | 35142 ft | 485 kts | 49° |
| 2026-04-13 20:01 | 44.09441 | 87.83793 | 35151 ft | 486 kts | 49° |
| 2026-04-13 20:01 | 44.13511 | 87.91283 | 35161 ft | 486 kts | 50° |
| 2026-04-13 20:02 | 44.17017 | 87.99351 | 35155 ft | 494 kts | 65° |
| 2026-04-13 20:02 | 44.18837 | 88.08552 | 35167 ft | 499 kts | 76° |
| 2026-04-13 20:03 | 44.20262 | 88.17976 | 35168 ft | 497 kts | 76° |
| 2026-04-13 20:03 | 44.21670 | 88.27402 | 35168 ft | 498 kts | 76° |
| 2026-04-13 20:04 | 44.23069 | 88.36852 | 35165 ft | 498 kts | 76° |
| 2026-04-13 20:04 | 44.24454 | 88.46275 | 35160 ft | 498 kts | 76° |
| 2026-04-13 20:05 | 44.25832 | 88.55712 | 35157 ft | 499 kts | 76° |
| 2026-04-13 20:05 | 44.27208 | 88.65199 | 35162 ft | 499 kts | 76° |
| 2026-04-13 20:06 | 44.28570 | 88.74648 | 35149 ft | 499 kts | 76° |
| 2026-04-13 20:06 | 44.29927 | 88.84123 | 35147 ft | 499 kts | 76° |
| 2026-04-13 20:07 | 44.31278 | 88.93613 | 35147 ft | 499 kts | 76° |
| 2026-04-13 20:07 | 44.32613 | 89.03058 | 35147 ft | 499 kts | 76° |
| 2026-04-13 20:08 | 44.33949 | 89.12562 | 35147 ft | 498 kts | 76° |
| 2026-04-13 20:08 | 44.35274 | 89.22054 | 35146 ft | 499 kts | 76° |
| 2026-04-13 20:09 | 44.36592 | 89.31553 | 35148 ft | 500 kts | 76° |
| 2026-04-13 20:09 | 44.37899 | 89.41032 | 35149 ft | 500 kts | 76° |
| 2026-04-13 20:10 | 44.39203 | 89.50558 | 35151 ft | 500 kts | 76° |
| 2026-04-13 20:10 | 44.40500 | 89.60091 | 35152 ft | 501 kts | 76° |
| 2026-04-13 20:11 | 44.40963 | 89.69807 | 35145 ft | 505 kts | 94° |
| 2026-04-13 20:11 | 44.39477 | 89.79357 | 35149 ft | 507 kts | 106° |
| 2026-04-13 20:12 | 44.37484 | 89.88799 | 35149 ft | 507 kts | 106° |
| 2026-04-13 20:12 | 44.35468 | 89.98180 | 35150 ft | 506 kts | 106° |
| 2026-04-13 20:13 | 44.33426 | 90.07587 | 35151 ft | 507 kts | 107° |
| 2026-04-13 20:13 | 44.31359 | 90.17035 | 35156 ft | 508 kts | 106° |
| 2026-04-13 20:14 | 44.29294 | 90.26414 | 35159 ft | 507 kts | 106° |
| 2026-04-13 20:14 | 44.27230 | 90.35741 | 35162 ft | 509 kts | 107° |
| 2026-04-13 20:15 | 44.25131 | 90.45182 | 35157 ft | 507 kts | 107° |
| 2026-04-13 20:15 | 44.23040 | 90.54536 | 35160 ft | 508 kts | 106° |
| 2026-04-13 20:16 | 44.20944 | 90.63876 | 35169 ft | 507 kts | 106° |
| 2026-04-13 20:16 | 44.18829 | 90.73261 | 35155 ft | 508 kts | 107° |
| 2026-04-13 20:17 | 44.16709 | 90.82621 | 35162 ft | 508 kts | 107° |
| 2026-04-13 20:17 | 44.14570 | 90.92028 | 35161 ft | 508 kts | 107° |
| 2026-04-13 20:18 | 44.12446 | 91.01327 | 35161 ft | 509 kts | 107° |
| 2026-04-13 20:18 | 44.10289 | 91.10733 | 35173 ft | 509 kts | 107° |
| 2026-04-13 20:19 | 44.08150 | 91.20028 | 35170 ft | 508 kts | 107° |
| 2026-04-13 20:19 | 44.05991 | 91.29372 | 35184 ft | 509 kts | 107° |
| 2026-04-13 20:20 | 44.03825 | 91.38706 | 35185 ft | 509 kts | 107° |
| 2026-04-13 20:20 | 44.01644 | 91.48023 | 35197 ft | 508 kts | 107° |
| 2026-04-13 20:21 | 43.99439 | 91.57345 | 35191 ft | 508 kts | 107° |
| 2026-04-13 20:21 | 43.97222 | 91.66681 | 35191 ft | 509 kts | 108° |
| 2026-04-13 20:22 | 43.95010 | 91.75958 | 35182 ft | 508 kts | 108° |
| 2026-04-13 20:22 | 43.92789 | 91.85238 | 35189 ft | 509 kts | 107° |
| 2026-04-13 20:23 | 43.90553 | 91.94541 | 35183 ft | 509 kts | 107° |
| 2026-04-13 20:23 | 43.88316 | 92.03810 | 35170 ft | 508 kts | 107° |
| 2026-04-13 20:24 | 43.86069 | 92.13084 | 35169 ft | 509 kts | 107° |
| 2026-04-13 20:24 | 43.83818 | 92.22334 | 35161 ft | 510 kts | 107° |
| 2026-04-13 20:25 | 43.81563 | 92.31567 | 35172 ft | 510 kts | 107° |
| 2026-04-13 20:25 | 43.79281 | 92.40868 | 35164 ft | 509 kts | 107° |
| 2026-04-13 20:26 | 43.77001 | 92.50127 | 35169 ft | 511 kts | 107° |
| 2026-04-13 20:26 | 43.74706 | 92.59409 | 35183 ft | 511 kts | 107° |
| 2026-04-13 20:27 | 43.72396 | 92.68714 | 35169 ft | 512 kts | 108° |
| 2026-04-13 20:27 | 43.70074 | 92.78027 | 35170 ft | 514 kts | 108° |
| 2026-04-13 20:28 | 43.67753 | 92.87302 | 35156 ft | 513 kts | 108° |
| 2026-04-13 20:28 | 43.65427 | 92.96559 | 35156 ft | 512 kts | 108° |
| 2026-04-13 20:29 | 43.63145 | 93.05906 | 35151 ft | 513 kts | 107° |
| 2026-04-13 20:29 | 43.60925 | 93.15233 | 35148 ft | 513 kts | 107° |
| 2026-04-13 20:30 | 43.58700 | 93.24527 | 35147 ft | 513 kts | 107° |
| 2026-04-13 20:30 | 43.56461 | 93.33828 | 35145 ft | 514 kts | 107° |
| 2026-04-13 20:31 | 43.54199 | 93.43175 | 35135 ft | 512 kts | 107° |
| 2026-04-13 20:31 | 43.52054 | 93.52003 | 35155 ft | 513 kts | 107° |
| 2026-04-13 20:32 | 43.49777 | 93.61338 | 35145 ft | 514 kts | 107° |
| 2026-04-13 20:32 | 43.47501 | 93.70626 | 35140 ft | 514 kts | 108° |
| 2026-04-13 20:33 | 43.45223 | 93.79881 | 35127 ft | 513 kts | 107° |
| 2026-04-13 20:33 | 43.42940 | 93.89126 | 35146 ft | 512 kts | 107° |
| 2026-04-13 20:34 | 43.40641 | 93.98394 | 35139 ft | 513 kts | 107° |
| 2026-04-13 20:34 | 43.38330 | 94.07674 | 35143 ft | 513 kts | 107° |
| 2026-04-13 20:35 | 43.36019 | 94.16914 | 35145 ft | 512 kts | 107° |
| 2026-04-13 20:35 | 43.33706 | 94.26128 | 35150 ft | 513 kts | 107° |
| 2026-04-13 20:36 | 43.31374 | 94.35383 | 35152 ft | 512 kts | 107° |
| 2026-04-13 20:36 | 43.29042 | 94.44598 | 35160 ft | 513 kts | 107° |
| 2026-04-13 20:37 | 43.26703 | 94.53807 | 35151 ft | 512 kts | 107° |
| 2026-04-13 20:37 | 43.24342 | 94.63065 | 35157 ft | 513 kts | 107° |
| 2026-04-13 20:38 | 43.21995 | 94.72228 | 35159 ft | 513 kts | 108° |
| 2026-04-13 20:38 | 43.19625 | 94.81452 | 35160 ft | 513 kts | 108° |
| 2026-04-13 20:39 | 43.17251 | 94.90652 | 35167 ft | 513 kts | 108° |
| 2026-04-13 20:39 | 43.14829 | 94.99781 | 35175 ft | 514 kts | 112° |
| 2026-04-13 20:40 | 43.11102 | 95.08041 | 35180 ft | 515 kts | 131° |
| 2026-04-13 20:40 | 43.05781 | 95.14577 | 35203 ft | 513 kts | 146° |
| 2026-04-13 20:41 | 42.99977 | 95.20187 | 35192 ft | 513 kts | 147° |
| 2026-04-13 20:41 | 42.94126 | 95.25726 | 35194 ft | 513 kts | 147° |
| 2026-04-13 20:42 | 42.88242 | 95.31238 | 35190 ft | 511 kts | 147° |
| 2026-04-13 20:42 | 42.82402 | 95.36672 | 35191 ft | 511 kts | 148° |
| 2026-04-13 20:43 | 42.76530 | 95.42110 | 35187 ft | 512 kts | 148° |
| 2026-04-13 20:43 | 42.70663 | 95.47524 | 35177 ft | 509 kts | 148° |
| 2026-04-13 20:44 | 42.64806 | 95.52911 | 35178 ft | 509 kts | 148° |
| 2026-04-13 20:44 | 42.58950 | 95.58284 | 35166 ft | 510 kts | 148° |
| 2026-04-13 20:45 | 42.53112 | 95.63626 | 35174 ft | 509 kts | 148° |
| 2026-04-13 20:46 | 42.44684 | 95.72350 | 35166 ft | 512 kts | 134° |
| 2026-04-13 20:46 | 42.40680 | 95.80294 | 35162 ft | 515 kts | 116° |
| 2026-04-13 20:47 | 42.38528 | 95.89444 | 35161 ft | 511 kts | 97° |
| 2026-04-13 20:47 | 42.38089 | 95.98955 | 35161 ft | 510 kts | 89° |
| 2026-04-13 20:48 | 42.37890 | 96.08514 | 35157 ft | 511 kts | 90° |
| 2026-04-13 20:48 | 42.37653 | 96.18083 | 35167 ft | 510 kts | 90° |
| 2026-04-13 20:49 | 42.37391 | 96.27655 | 35177 ft | 510 kts | 90° |
| 2026-04-13 20:49 | 42.37112 | 96.37202 | 35171 ft | 512 kts | 90° |
| 2026-04-13 20:50 | 42.36819 | 96.46786 | 35185 ft | 509 kts | 90° |
| 2026-04-13 20:50 | 42.36515 | 96.56381 | 35173 ft | 511 kts | 90° |
| 2026-04-13 20:51 | 42.36203 | 96.65931 | 35181 ft | 511 kts | 90° |
| 2026-04-13 20:51 | 42.35881 | 96.75480 | 35166 ft | 510 kts | 91° |
| 2026-04-13 20:52 | 42.35551 | 96.85049 | 35174 ft | 510 kts | 91° |
| 2026-04-13 20:52 | 42.35212 | 96.94634 | 35179 ft | 511 kts | 91° |
| 2026-04-13 20:53 | 42.34867 | 97.04151 | 35174 ft | 510 kts | 91° |
| 2026-04-13 20:53 | 42.34513 | 97.13717 | 35172 ft | 511 kts | 90° |
| 2026-04-13 20:54 | 42.34150 | 97.23265 | 35183 ft | 511 kts | 91° |
| 2026-04-13 20:54 | 42.33780 | 97.32822 | 35167 ft | 510 kts | 91° |
| 2026-04-13 20:55 | 42.33400 | 97.42410 | 35173 ft | 510 kts | 91° |
| 2026-04-13 20:55 | 42.33014 | 97.51962 | 35176 ft | 510 kts | 90° |
| 2026-04-13 20:56 | 42.32622 | 97.61485 | 35177 ft | 511 kts | 90° |
| 2026-04-13 20:56 | 42.32219 | 97.71053 | 35161 ft | 511 kts | 91° |
| 2026-04-13 20:57 | 42.31809 | 97.80606 | 35178 ft | 511 kts | 91° |
| 2026-04-13 20:57 | 42.31390 | 97.90174 | 35156 ft | 510 kts | 91° |
| 2026-04-13 20:58 | 42.30964 | 97.99717 | 35174 ft | 511 kts | 91° |
| 2026-04-13 20:58 | 42.30529 | 98.09295 | 35162 ft | 511 kts | 91° |
| 2026-04-13 20:59 | 42.30089 | 98.18806 | 35157 ft | 511 kts | 91° |
| 2026-04-13 20:59 | 42.29638 | 98.28381 | 35166 ft | 511 kts | 91° |
| 2026-04-13 21:00 | 42.29169 | 98.37912 | 35172 ft | 511 kts | 92° |
| 2026-04-13 21:00 | 42.28677 | 98.47484 | 35168 ft | 511 kts | 92° |
| 2026-04-13 21:01 | 42.28182 | 98.56966 | 35168 ft | 511 kts | 92° |
| 2026-04-13 21:01 | 42.27676 | 98.66502 | 35151 ft | 511 kts | 92° |
| 2026-04-13 21:02 | 42.27161 | 98.76071 | 35146 ft | 511 kts | 92° |
| 2026-04-13 21:02 | 42.26640 | 98.85625 | 35151 ft | 511 kts | 92° |
| 2026-04-13 21:03 | 42.26112 | 98.95141 | 35154 ft | 511 kts | 92° |
| 2026-04-13 21:03 | 42.25573 | 99.04713 | 35149 ft | 511 kts | 92° |
| 2026-04-13 21:04 | 42.25029 | 99.14246 | 35158 ft | 512 kts | 92° |
| 2026-04-13 21:04 | 42.24477 | 99.23756 | 35135 ft | 512 kts | 92° |
| 2026-04-13 21:05 | 42.23917 | 99.33289 | 35150 ft | 511 kts | 92° |
| 2026-04-13 21:05 | 42.23348 | 99.42831 | 35146 ft | 511 kts | 92° |
| 2026-04-13 21:06 | 42.22768 | 99.52419 | 35152 ft | 511 kts | 92° |
| 2026-04-13 21:06 | 42.22185 | 99.61925 | 35159 ft | 511 kts | 92° |
| 2026-04-13 21:07 | 42.21594 | 99.71442 | 35153 ft | 511 kts | 93° |
| 2026-04-13 21:07 | 42.20993 | 99.80988 | 35137 ft | 512 kts | 94° |
| 2026-04-13 21:08 | 42.20384 | 99.90523 | 35143 ft | 511 kts | 93° |
| 2026-04-13 21:08 | 42.19770 | 100.00021 | 35131 ft | 511 kts | 93° |
| 2026-04-13 21:09 | 42.19145 | 100.09562 | 35147 ft | 511 kts | 93° |
| 2026-04-13 21:09 | 42.18513 | 100.19089 | 35156 ft | 511 kts | 93° |
| 2026-04-13 21:10 | 42.17871 | 100.28637 | 35139 ft | 511 kts | 93° |
| 2026-04-13 21:10 | 42.17225 | 100.38130 | 35136 ft | 512 kts | 94° |
| 2026-04-13 21:11 | 42.16567 | 100.47683 | 35140 ft | 511 kts | 94° |
| 2026-04-13 21:11 | 42.15904 | 100.57194 | 35137 ft | 511 kts | 93° |
| 2026-04-13 21:12 | 42.15232 | 100.66727 | 35139 ft | 512 kts | 94° |
| 2026-04-13 21:12 | 42.14555 | 100.76205 | 35131 ft | 512 kts | 94° |
| 2026-04-13 21:13 | 42.13867 | 100.85725 | 35145 ft | 511 kts | 94° |
| 2026-04-13 21:13 | 42.13170 | 100.95270 | 35140 ft | 511 kts | 94° |
| 2026-04-13 21:14 | 42.12185 | 101.04710 | 35134 ft | 512 kts | 104° |
| 2026-04-13 21:14 | 42.09972 | 101.13805 | 35135 ft | 513 kts | 109° |
| 2026-04-13 21:15 | 42.07630 | 101.22851 | 35130 ft | 514 kts | 109° |
| 2026-04-13 21:15 | 42.05268 | 101.31895 | 35134 ft | 512 kts | 109° |
| 2026-04-13 21:16 | 42.02906 | 101.40875 | 35138 ft | 512 kts | 109° |
| 2026-04-13 21:16 | 42.00526 | 101.49882 | 35144 ft | 513 kts | 109° |
| 2026-04-13 21:17 | 41.98137 | 101.58881 | 35135 ft | 513 kts | 109° |
| 2026-04-13 21:17 | 41.95734 | 101.67899 | 35126 ft | 512 kts | 110° |
| 2026-04-13 21:18 | 41.93329 | 101.76884 | 35133 ft | 513 kts | 110° |
| 2026-04-13 21:18 | 41.90904 | 101.85912 | 35127 ft | 512 kts | 110° |
| 2026-04-13 21:19 | 41.88489 | 101.94866 | 35136 ft | 513 kts | 110° |
| 2026-04-13 21:19 | 41.86068 | 102.03814 | 35123 ft | 513 kts | 110° |
| 2026-04-13 21:20 | 41.83633 | 102.12776 | 35134 ft | 513 kts | 110° |
| 2026-04-13 21:20 | 41.81190 | 102.21739 | 35131 ft | 513 kts | 110° |
| 2026-04-13 21:21 | 41.78737 | 102.30705 | 35134 ft | 513 kts | 110° |
| 2026-04-13 21:21 | 41.76291 | 102.39614 | 35156 ft | 513 kts | 110° |
| 2026-04-13 21:22 | 41.73830 | 102.48543 | 35144 ft | 513 kts | 110° |
| 2026-04-13 21:22 | 41.71354 | 102.57497 | 35153 ft | 513 kts | 110° |
| 2026-04-13 21:23 | 41.68875 | 102.66428 | 35154 ft | 512 kts | 111° |
| 2026-04-13 21:23 | 41.66398 | 102.75326 | 35140 ft | 512 kts | 111° |
| 2026-04-13 21:24 | 41.63907 | 102.84244 | 35143 ft | 512 kts | 111° |
| 2026-04-13 21:24 | 41.61418 | 102.93120 | 35148 ft | 514 kts | 111° |
| 2026-04-13 21:25 | 41.58908 | 103.02044 | 35142 ft | 513 kts | 111° |
| 2026-04-13 21:25 | 41.56406 | 103.10899 | 35139 ft | 513 kts | 111° |
| 2026-04-13 21:26 | 41.53885 | 103.19791 | 35155 ft | 512 kts | 111° |
| 2026-04-13 21:26 | 41.51361 | 103.28664 | 35149 ft | 513 kts | 111° |
| 2026-04-13 21:27 | 41.48824 | 103.37550 | 35151 ft | 512 kts | 111° |
| 2026-04-13 21:27 | 41.46284 | 103.46418 | 35155 ft | 513 kts | 111° |
| 2026-04-13 21:28 | 41.43755 | 103.55212 | 35149 ft | 512 kts | 111° |
| 2026-04-13 21:28 | 41.41195 | 103.64088 | 35171 ft | 513 kts | 111° |
| 2026-04-13 21:29 | 41.38629 | 103.72952 | 35147 ft | 512 kts | 111° |
| 2026-04-13 21:29 | 41.36076 | 103.81744 | 35154 ft | 512 kts | 111° |
| 2026-04-13 21:30 | 41.33497 | 103.90592 | 35156 ft | 512 kts | 111° |
| 2026-04-13 21:30 | 41.30917 | 103.99414 | 35165 ft | 513 kts | 111° |
| 2026-04-13 21:31 | 41.28351 | 104.08161 | 35150 ft | 513 kts | 111° |
| 2026-04-13 21:31 | 41.25755 | 104.16979 | 35155 ft | 513 kts | 111° |
| 2026-04-13 21:32 | 41.23162 | 104.25756 | 35157 ft | 513 kts | 111° |
| 2026-04-13 21:32 | 41.20540 | 104.34602 | 35164 ft | 512 kts | 111° |
| 2026-04-13 21:33 | 41.17944 | 104.43328 | 35168 ft | 513 kts | 111° |
| 2026-04-13 21:33 | 41.15320 | 104.52123 | 35168 ft | 513 kts | 111° |
| 2026-04-13 21:34 | 41.11367 | 104.65313 | 35181 ft | 513 kts | 112° |
| 2026-04-13 21:34 | 41.08677 | 104.74033 | 35176 ft | 513 kts | 115° |
| 2026-04-13 21:35 | 41.05761 | 104.82619 | 35183 ft | 512 kts | 115° |
| 2026-04-13 21:36 | 41.01385 | 104.95485 | 35185 ft | 513 kts | 115° |
| 2026-04-13 21:36 | 40.98451 | 105.04105 | 35185 ft | 512 kts | 115° |
| 2026-04-13 21:37 | 40.95537 | 105.12653 | 35184 ft | 512 kts | 115° |
| 2026-04-13 21:37 | 40.92586 | 105.21286 | 35188 ft | 513 kts | 115° |
| 2026-04-13 21:38 | 40.89657 | 105.29833 | 35187 ft | 513 kts | 115° |
| 2026-04-13 21:38 | 40.86719 | 105.38384 | 35182 ft | 513 kts | 115° |
| 2026-04-13 21:39 | 40.83757 | 105.46977 | 35186 ft | 513 kts | 115° |
| 2026-04-13 21:39 | 40.80813 | 105.55493 | 35186 ft | 513 kts | 115° |
| 2026-04-13 21:40 | 40.77839 | 105.64072 | 35186 ft | 513 kts | 115° |
| 2026-04-13 21:40 | 40.74859 | 105.72639 | 35180 ft | 513 kts | 115° |
| 2026-04-13 21:41 | 40.71900 | 105.81124 | 35181 ft | 513 kts | 115° |
| 2026-04-13 21:41 | 40.68901 | 105.89696 | 35183 ft | 513 kts | 115° |
| 2026-04-13 21:42 | 40.65925 | 105.98177 | 35194 ft | 513 kts | 115° |
| 2026-04-13 21:42 | 40.62923 | 106.06705 | 35186 ft | 514 kts | 115° |
| 2026-04-13 21:43 | 40.59914 | 106.15229 | 35191 ft | 513 kts | 115° |
| 2026-04-13 21:43 | 40.56908 | 106.23721 | 35189 ft | 514 kts | 115° |
| 2026-04-13 21:44 | 40.53889 | 106.32220 | 35187 ft | 513 kts | 115° |
| 2026-04-13 21:44 | 40.50866 | 106.40711 | 35182 ft | 514 kts | 115° |
| 2026-04-13 21:45 | 40.47830 | 106.49209 | 35181 ft | 514 kts | 115° |
| 2026-04-13 21:45 | 40.44809 | 106.57642 | 35174 ft | 515 kts | 115° |
| 2026-04-13 21:46 | 40.41769 | 106.66102 | 35173 ft | 514 kts | 116° |
| 2026-04-13 21:46 | 40.38702 | 106.74613 | 35166 ft | 514 kts | 116° |
| 2026-04-13 21:47 | 40.35645 | 106.83071 | 35167 ft | 515 kts | 116° |
| 2026-04-13 21:47 | 40.32796 | 106.91654 | 35166 ft | 515 kts | 107° |
| 2026-04-13 21:48 | 40.31664 | 107.00809 | 35164 ft | 512 kts | 89° |
| 2026-04-13 21:48 | 40.32418 | 107.10033 | 35172 ft | 510 kts | 77° |
| 2026-04-13 21:49 | 40.33608 | 107.19160 | 35181 ft | 509 kts | 78° |
| 2026-04-13 21:49 | 40.34772 | 107.28323 | 35182 ft | 509 kts | 78° |
| 2026-04-13 21:50 | 40.35911 | 107.37473 | 35185 ft | 509 kts | 78° |
| 2026-04-13 21:50 | 40.37034 | 107.46616 | 35189 ft | 509 kts | 78° |
| 2026-04-13 21:51 | 40.38144 | 107.55756 | 35183 ft | 509 kts | 78° |
| 2026-04-13 21:51 | 40.39245 | 107.64899 | 35184 ft | 510 kts | 78° |
| 2026-04-13 21:52 | 40.40335 | 107.74030 | 35175 ft | 509 kts | 79° |
| 2026-04-13 21:52 | 40.41422 | 107.83204 | 35178 ft | 509 kts | 79° |
| 2026-04-13 21:53 | 40.42502 | 107.92380 | 35178 ft | 510 kts | 79° |
| 2026-04-13 21:53 | 40.43571 | 108.01545 | 35181 ft | 509 kts | 79° |
| 2026-04-13 21:54 | 40.44628 | 108.10692 | 35182 ft | 509 kts | 79° |
| 2026-04-13 21:54 | 40.45683 | 108.19885 | 35178 ft | 509 kts | 79° |
| 2026-04-13 21:55 | 40.46726 | 108.29034 | 35178 ft | 510 kts | 79° |
| 2026-04-13 21:55 | 40.47762 | 108.38195 | 35181 ft | 509 kts | 79° |
| 2026-04-13 21:56 | 40.48795 | 108.47392 | 35178 ft | 508 kts | 79° |
| 2026-04-13 21:56 | 40.49820 | 108.56584 | 35179 ft | 509 kts | 79° |
| 2026-04-13 21:57 | 40.50829 | 108.65711 | 35180 ft | 508 kts | 79° |
| 2026-04-13 21:57 | 40.51843 | 108.74940 | 35170 ft | 508 kts | 79° |
| 2026-04-13 21:58 | 40.52840 | 108.84087 | 35170 ft | 508 kts | 79° |
| 2026-04-13 21:58 | 40.53836 | 108.93294 | 35176 ft | 508 kts | 79° |
| 2026-04-13 21:59 | 40.54819 | 109.02451 | 35172 ft | 508 kts | 79° |
| 2026-04-13 21:59 | 40.55794 | 109.11607 | 35171 ft | 508 kts | 79° |
| 2026-04-13 22:00 | 40.56768 | 109.20821 | 35179 ft | 508 kts | 79° |
| 2026-04-13 22:00 | 40.57731 | 109.29997 | 35181 ft | 508 kts | 79° |
| 2026-04-13 22:01 | 40.58691 | 109.39227 | 35185 ft | 508 kts | 79° |
| 2026-04-13 22:01 | 40.59636 | 109.48380 | 35194 ft | 508 kts | 79° |
| 2026-04-13 22:02 | 40.60578 | 109.57580 | 35198 ft | 508 kts | 79° |
| 2026-04-13 22:02 | 40.61508 | 109.66733 | 35189 ft | 508 kts | 80° |
| 2026-04-13 22:03 | 40.62442 | 109.75997 | 35183 ft | 508 kts | 80° |
| 2026-04-13 22:03 | 40.63357 | 109.85158 | 35177 ft | 508 kts | 80° |
| 2026-04-13 22:04 | 40.64270 | 109.94363 | 35185 ft | 508 kts | 80° |
| 2026-04-13 22:04 | 40.64630 | 110.03645 | 35180 ft | 511 kts | 88° |
| 2026-04-13 22:05 | 40.64597 | 110.12991 | 35182 ft | 511 kts | 88° |
| 2026-04-13 22:05 | 40.64549 | 110.22319 | 35188 ft | 510 kts | 88° |
| 2026-04-13 22:06 | 40.64492 | 110.31606 | 35182 ft | 511 kts | 88° |
| 2026-04-13 22:06 | 40.64427 | 110.40949 | 35183 ft | 510 kts | 88° |
| 2026-04-13 22:07 | 40.64355 | 110.50245 | 35188 ft | 511 kts | 88° |
| 2026-04-13 22:07 | 40.64277 | 110.59565 | 35192 ft | 511 kts | 88° |
| 2026-04-13 22:08 | 40.64191 | 110.68922 | 35185 ft | 510 kts | 89° |
| 2026-04-13 22:08 | 40.64098 | 110.78204 | 35184 ft | 510 kts | 89° |
| 2026-04-13 22:09 | 40.63998 | 110.87526 | 35184 ft | 510 kts | 89° |
| 2026-04-13 22:09 | 40.63889 | 110.96832 | 35179 ft | 510 kts | 89° |
| 2026-04-13 22:10 | 40.63773 | 111.06190 | 35181 ft | 510 kts | 89° |
| 2026-04-13 22:10 | 40.63650 | 111.15463 | 35185 ft | 511 kts | 89° |
| 2026-04-13 22:11 | 40.63520 | 111.24805 | 35170 ft | 511 kts | 89° |
| 2026-04-13 22:11 | 40.63382 | 111.34104 | 35172 ft | 510 kts | 89° |
| 2026-04-13 22:12 | 40.63236 | 111.43459 | 35176 ft | 510 kts | 89° |
| 2026-04-13 22:12 | 40.63083 | 111.52757 | 35170 ft | 510 kts | 89° |
| 2026-04-13 22:13 | 40.62923 | 111.62075 | 35174 ft | 511 kts | 89° |
| 2026-04-13 22:13 | 40.62755 | 111.71398 | 35168 ft | 510 kts | 90° |
| 2026-04-13 22:14 | 40.62580 | 111.80692 | 35174 ft | 510 kts | 90° |
| 2026-04-13 22:14 | 40.62397 | 111.90022 | 35176 ft | 510 kts | 90° |
| 2026-04-13 22:15 | 40.62226 | 111.99285 | 35174 ft | 510 kts | 90° |
| 2026-04-13 22:15 | 40.62014 | 112.08640 | 35188 ft | 510 kts | 90° |
| 2026-04-13 22:16 | 40.61805 | 112.17939 | 35192 ft | 510 kts | 90° |
| 2026-04-13 22:16 | 40.61591 | 112.27186 | 35199 ft | 510 kts | 90° |
| 2026-04-13 22:17 | 40.61367 | 112.36524 | 35200 ft | 511 kts | 90° |
| 2026-04-13 22:17 | 40.61137 | 112.45803 | 35192 ft | 510 kts | 90° |
| 2026-04-13 22:18 | 40.60776 | 112.55141 | 35197 ft | 511 kts | 92° |
| 2026-04-13 22:18 | 40.60224 | 112.64441 | 35193 ft | 511 kts | 92° |
| 2026-04-13 22:19 | 40.59675 | 112.73731 | 35185 ft | 511 kts | 94° |
| 2026-04-13 22:19 | 40.58897 | 112.82959 | 35190 ft | 511 kts | 94° |
| 2026-04-13 22:20 | 40.58268 | 112.92259 | 35185 ft | 510 kts | 94° |
| 2026-04-13 22:20 | 40.57650 | 113.01546 | 35189 ft | 510 kts | 94° |
| 2026-04-13 22:21 | 40.57027 | 113.10796 | 35188 ft | 511 kts | 94° |
| 2026-04-13 22:21 | 40.56395 | 113.20077 | 35188 ft | 510 kts | 94° |
| 2026-04-13 22:22 | 40.55752 | 113.29394 | 35192 ft | 511 kts | 94° |
| 2026-04-13 22:22 | 40.55104 | 113.38685 | 35197 ft | 512 kts | 94° |
| 2026-04-13 22:23 | 40.54451 | 113.47935 | 35192 ft | 510 kts | 94° |
| 2026-04-13 22:23 | 40.53787 | 113.57229 | 35189 ft | 510 kts | 94° |
| 2026-04-13 22:24 | 40.53120 | 113.66473 | 35195 ft | 510 kts | 94° |
| 2026-04-13 22:24 | 40.52441 | 113.75772 | 35193 ft | 511 kts | 94° |
| 2026-04-13 22:25 | 40.51758 | 113.85013 | 35197 ft | 510 kts | 94° |
| 2026-04-13 22:25 | 40.51065 | 113.94292 | 35198 ft | 511 kts | 95° |
| 2026-04-13 22:26 | 40.50442 | 114.03547 | 35201 ft | 510 kts | 91° |
| 2026-04-13 22:26 | 40.50081 | 114.12793 | 35193 ft | 511 kts | 91° |
| 2026-04-13 22:27 | 40.49704 | 114.22112 | 35185 ft | 511 kts | 91° |
| 2026-04-13 22:27 | 40.49311 | 114.31380 | 35170 ft | 510 kts | 91° |
| 2026-04-13 22:28 | 40.48905 | 114.40688 | 35176 ft | 510 kts | 91° |
| 2026-04-13 22:28 | 40.48491 | 114.49925 | 35176 ft | 510 kts | 91° |
| 2026-04-13 22:29 | 40.48067 | 114.59191 | 35183 ft | 511 kts | 91° |
| 2026-04-13 22:29 | 40.47634 | 114.68470 | 35190 ft | 510 kts | 92° |
| 2026-04-13 22:30 | 40.47191 | 114.77793 | 35191 ft | 510 kts | 92° |
| 2026-04-13 22:30 | 40.46743 | 114.87064 | 35180 ft | 511 kts | 92° |
| 2026-04-13 22:31 | 40.46286 | 114.96349 | 35165 ft | 510 kts | 92° |
| 2026-04-13 22:31 | 40.45822 | 115.05618 | 35161 ft | 510 kts | 92° |
| 2026-04-13 22:32 | 40.45350 | 115.14909 | 35150 ft | 510 kts | 92° |
| 2026-04-13 22:32 | 40.44873 | 115.24152 | 35145 ft | 510 kts | 92° |
| 2026-04-13 22:33 | 40.44385 | 115.33472 | 35152 ft | 510 kts | 92° |
| 2026-04-13 22:33 | 40.43893 | 115.42703 | 35164 ft | 510 kts | 92° |
| 2026-04-13 22:34 | 40.42728 | 115.61203 | 35171 ft | 510 kts | 94° |
| 2026-04-13 22:35 | 40.41963 | 115.70448 | 35174 ft | 511 kts | 95° |
| 2026-04-13 22:35 | 40.41201 | 115.79662 | 35171 ft | 510 kts | 95° |
| 2026-04-13 22:36 | 40.40431 | 115.88955 | 35158 ft | 511 kts | 95° |
| 2026-04-13 22:36 | 40.39656 | 115.98235 | 35137 ft | 511 kts | 95° |
| 2026-04-13 22:37 | 40.38884 | 116.07419 | 35130 ft | 511 kts | 95° |
| 2026-04-13 22:37 | 40.38102 | 116.16644 | 35125 ft | 510 kts | 95° |
| 2026-04-13 22:38 | 40.37311 | 116.25890 | 35125 ft | 510 kts | 95° |
| 2026-04-13 22:38 | 40.36514 | 116.35120 | 35129 ft | 511 kts | 95° |
| 2026-04-13 22:39 | 40.35709 | 116.44351 | 35130 ft | 511 kts | 95° |
| 2026-04-13 22:39 | 40.34811 | 116.53552 | 35124 ft | 511 kts | 101° |
| 2026-04-13 22:40 | 40.32357 | 116.62296 | 35104 ft | 511 kts | 120° |
| 2026-04-13 22:40 | 40.28095 | 116.69592 | 35065 ft | 505 kts | 140° |
| 2026-04-13 22:41 | 40.22430 | 116.74882 | 35042 ft | 496 kts | 158° |
| 2026-04-13 22:41 | 40.16005 | 116.77743 | 35036 ft | 484 kts | 174° |
| 2026-04-13 22:42 | 40.09388 | 116.79309 | 35038 ft | 484 kts | 176° |
| 2026-04-13 22:42 | 40.02758 | 116.80758 | 35035 ft | 483 kts | 176° |
| 2026-04-13 22:43 | 39.96129 | 116.82147 | 35039 ft | 483 kts | 176° |
| 2026-04-13 22:43 | 39.89497 | 116.83504 | 35034 ft | 482 kts | 176° |
| 2026-04-13 22:44 | 39.82881 | 116.84840 | 35040 ft | 481 kts | 176° |
| 2026-04-13 22:44 | 39.76284 | 116.86180 | 35037 ft | 482 kts | 176° |
| 2026-04-13 22:45 | 39.69658 | 116.87564 | 35046 ft | 481 kts | 176° |
| 2026-04-13 22:45 | 39.63088 | 116.88930 | 35044 ft | 480 kts | 176° |
| 2026-04-13 22:46 | 39.56496 | 116.90294 | 35046 ft | 480 kts | 176° |
| 2026-04-13 22:46 | 39.49903 | 116.91654 | 35051 ft | 479 kts | 176° |
| 2026-04-13 22:47 | 39.43313 | 116.93009 | 35053 ft | 480 kts | 176° |
| 2026-04-13 22:47 | 39.36724 | 116.94363 | 35057 ft | 479 kts | 176° |
| 2026-04-13 22:48 | 39.30146 | 116.95711 | 35058 ft | 478 kts | 176° |
| 2026-04-13 22:48 | 39.23646 | 116.97636 | 35057 ft | 487 kts | 163° |
| 2026-04-13 22:49 | 39.17725 | 117.01987 | 35059 ft | 497 kts | 144° |
| 2026-04-13 22:49 | 39.13022 | 117.08516 | 35063 ft | 504 kts | 126° |
| 2026-04-13 22:50 | 39.10020 | 117.16699 | 35071 ft | 507 kts | 106° |
| 2026-04-13 22:50 | 39.08846 | 117.25615 | 35075 ft | 508 kts | 96° |
| 2026-04-13 22:51 | 39.07907 | 117.34596 | 35073 ft | 507 kts | 97° |
| 2026-04-13 22:51 | 39.07625 | 117.43594 | 35079 ft | 507 kts | 89° |
| 2026-04-13 22:52 | 39.07604 | 117.52660 | 35079 ft | 506 kts | 89° |
| 2026-04-13 22:52 | 39.07544 | 117.61716 | 35077 ft | 507 kts | 89° |
| 2026-04-13 22:53 | 39.07457 | 117.70798 | 35067 ft | 506 kts | 90° |
| 2026-04-13 22:53 | 39.07352 | 117.79817 | 35070 ft | 507 kts | 90° |
| 2026-04-13 22:54 | 39.07235 | 117.88827 | 35076 ft | 506 kts | 90° |
| 2026-04-13 22:54 | 39.07108 | 117.97871 | 35074 ft | 507 kts | 90° |
| 2026-04-13 22:55 | 39.06474 | 118.06825 | 35079 ft | 506 kts | 101° |
| 2026-04-13 22:55 | 39.05085 | 118.15741 | 35072 ft | 507 kts | 101° |
| 2026-04-13 22:56 | 39.03681 | 118.24590 | 35073 ft | 507 kts | 101° |
| 2026-04-13 22:56 | 39.02266 | 118.33459 | 35072 ft | 507 kts | 101° |
| 2026-04-13 22:57 | 39.00844 | 118.42324 | 35075 ft | 507 kts | 101° |
| 2026-04-13 22:57 | 38.99423 | 118.51139 | 35074 ft | 507 kts | 101° |
| 2026-04-13 22:58 | 38.97987 | 118.60002 | 35078 ft | 508 kts | 101° |
| 2026-04-13 22:58 | 38.96546 | 118.68851 | 35069 ft | 506 kts | 102° |
| 2026-04-13 22:59 | 38.95097 | 118.77703 | 35066 ft | 507 kts | 102° |
| 2026-04-13 22:59 | 38.93648 | 118.86511 | 35071 ft | 507 kts | 102° |
| 2026-04-13 23:00 | 38.92185 | 118.95362 | 35075 ft | 506 kts | 102° |
| 2026-04-13 23:00 | 38.90723 | 119.04164 | 35062 ft | 506 kts | 102° |
| 2026-04-13 23:01 | 38.89252 | 119.12960 | 35060 ft | 506 kts | 102° |
| 2026-04-13 23:01 | 38.87780 | 119.21722 | 35069 ft | 506 kts | 102° |
| 2026-04-13 23:02 | 38.86293 | 119.30533 | 35061 ft | 506 kts | 102° |
| 2026-04-13 23:02 | 38.84806 | 119.39299 | 35046 ft | 506 kts | 102° |
| 2026-04-13 23:03 | 38.83308 | 119.48088 | 35061 ft | 505 kts | 102° |
| 2026-04-13 23:03 | 38.81799 | 119.56901 | 35055 ft | 505 kts | 102° |
| 2026-04-13 23:04 | 38.80285 | 119.65695 | 35047 ft | 505 kts | 103° |
| 2026-04-13 23:04 | 38.78771 | 119.74455 | 35050 ft | 505 kts | 103° |
| 2026-04-13 23:05 | 38.77243 | 119.83249 | 35047 ft | 506 kts | 103° |
| 2026-04-13 23:05 | 38.75790 | 119.92008 | 35043 ft | 505 kts | 102° |
| 2026-04-13 23:06 | 38.74329 | 120.00830 | 35050 ft | 505 kts | 102° |
| 2026-04-13 23:06 | 38.72078 | 120.09240 | 35039 ft | 503 kts | 119° |
| 2026-04-13 23:07 | 38.68012 | 120.16438 | 35036 ft | 497 kts | 138° |
| 2026-04-13 23:07 | 38.63313 | 120.23017 | 35243 ft | 511 kts | 126° |
| 2026-04-13 23:07 | 38.61541 | 120.26910 | 35631 ft | 511 kts | 116° |
| 2026-04-13 23:08 | 38.60242 | 120.31094 | 36023 ft | 510 kts | 107° |
| 2026-04-13 23:08 | 38.59374 | 120.35491 | 36359 ft | 509 kts | 102° |
| 2026-04-13 23:08 | 38.58631 | 120.39927 | 36672 ft | 511 kts | 102° |
| 2026-04-13 23:08 | 38.57906 | 120.44321 | 36995 ft | 511 kts | 102° |
| 2026-04-13 23:09 | 38.57172 | 120.48773 | 37014 ft | 512 kts | 102° |
| 2026-04-13 23:09 | 38.55721 | 120.57580 | 37021 ft | 510 kts | 102° |
| 2026-04-13 23:10 | 38.54283 | 120.66463 | 37020 ft | 511 kts | 102° |
| 2026-04-13 23:10 | 38.52843 | 120.75328 | 37022 ft | 511 kts | 102° |
| 2026-04-13 23:11 | 38.51405 | 120.84134 | 37012 ft | 511 kts | 102° |
| 2026-04-13 23:11 | 38.49949 | 120.93002 | 37021 ft | 511 kts | 102° |
| 2026-04-13 23:12 | 38.48490 | 121.01841 | 37006 ft | 511 kts | 102° |
| 2026-04-13 23:12 | 38.47028 | 121.10659 | 37016 ft | 511 kts | 102° |
| 2026-04-13 23:13 | 38.45570 | 121.19488 | 37017 ft | 511 kts | 102° |
| 2026-04-13 23:13 | 38.44136 | 121.28339 | 37003 ft | 511 kts | 102° |
| 2026-04-13 23:14 | 38.42708 | 121.37199 | 37010 ft | 511 kts | 102° |
| 2026-04-13 23:14 | 38.41279 | 121.46007 | 37005 ft | 511 kts | 102° |
| 2026-04-13 23:15 | 38.39818 | 121.54836 | 36995 ft | 511 kts | 102° |
| 2026-04-13 23:15 | 38.38340 | 121.63687 | 37017 ft | 510 kts | 102° |
| 2026-04-13 23:16 | 38.36859 | 121.72515 | 36996 ft | 511 kts | 103° |
| 2026-04-13 23:16 | 38.35375 | 121.81317 | 37001 ft | 510 kts | 103° |
| 2026-04-13 23:17 | 38.33884 | 121.90125 | 36988 ft | 511 kts | 103° |
| 2026-04-13 23:17 | 38.32385 | 121.98937 | 36993 ft | 510 kts | 103° |
| 2026-04-13 23:18 | 38.30880 | 122.07739 | 37003 ft | 510 kts | 103° |
| 2026-04-13 23:18 | 38.29378 | 122.16484 | 36992 ft | 511 kts | 103° |
| 2026-04-13 23:19 | 38.27851 | 122.25330 | 36986 ft | 511 kts | 103° |
| 2026-04-13 23:19 | 38.26552 | 122.34145 | 36989 ft | 511 kts | 100° |
| 2026-04-13 23:20 | 38.24670 | 122.42785 | 36987 ft | 508 kts | 115° |
| 2026-04-13 23:20 | 38.20917 | 122.50326 | 36982 ft | 502 kts | 134° |
| 2026-04-13 23:21 | 38.16134 | 122.56694 | 36976 ft | 501 kts | 137° |
| 2026-04-13 23:21 | 38.11254 | 122.63007 | 36973 ft | 501 kts | 137° |
| 2026-04-13 23:22 | 38.06377 | 122.69331 | 36959 ft | 500 kts | 137° |
| 2026-04-13 23:22 | 38.01552 | 122.75613 | 36953 ft | 500 kts | 137° |
| 2026-04-13 23:23 | 37.96702 | 122.81908 | 36952 ft | 500 kts | 137° |
| 2026-04-13 23:23 | 37.91856 | 122.88182 | 36946 ft | 501 kts | 138° |
| 2026-04-13 23:24 | 37.86990 | 122.94466 | 36948 ft | 499 kts | 138° |
| 2026-04-13 23:24 | 37.79708 | 123.03846 | 36949 ft | 501 kts | 137° |
| 2026-04-13 23:25 | 37.74832 | 123.10109 | 36948 ft | 500 kts | 138° |
| 2026-04-13 23:25 | 37.69958 | 123.16357 | 36945 ft | 499 kts | 138° |
| 2026-04-13 23:26 | 37.65115 | 123.22554 | 36946 ft | 499 kts | 138° |
| 2026-04-13 23:26 | 37.60225 | 123.28798 | 36947 ft | 499 kts | 138° |
| 2026-04-13 23:27 | 37.55542 | 123.35207 | 36949 ft | 502 kts | 130° |
| 2026-04-13 23:27 | 37.51340 | 123.42249 | 36944 ft | 502 kts | 129° |
| 2026-04-13 23:28 | 37.47163 | 123.49273 | 36943 ft | 502 kts | 129° |
| 2026-04-13 23:28 | 37.42986 | 123.56274 | 36942 ft | 503 kts | 129° |
| 2026-04-13 23:29 | 37.38793 | 123.63281 | 36944 ft | 502 kts | 129° |
| 2026-04-13 23:29 | 37.34603 | 123.70267 | 36932 ft | 501 kts | 130° |
| 2026-04-13 23:30 | 37.30396 | 123.77266 | 36932 ft | 501 kts | 130° |
| 2026-04-13 23:30 | 37.26222 | 123.84193 | 36933 ft | 503 kts | 130° |
| 2026-04-13 23:31 | 37.22017 | 123.91159 | 36935 ft | 501 kts | 130° |
| 2026-04-13 23:31 | 37.18540 | 123.98773 | 36929 ft | 508 kts | 112° |
| 2026-04-13 23:32 | 37.16979 | 124.07373 | 36928 ft | 510 kts | 94° |
| 2026-04-13 23:32 | 37.17151 | 124.16281 | 36933 ft | 510 kts | 86° |
| 2026-04-13 23:33 | 37.17533 | 124.25109 | 36935 ft | 510 kts | 86° |
| 2026-04-13 23:33 | 37.17801 | 124.34011 | 36939 ft | 510 kts | 87° |
| 2026-04-13 23:34 | 37.18031 | 124.42830 | 36939 ft | 510 kts | 88° |
| 2026-04-13 23:34 | 37.18244 | 124.51674 | 36938 ft | 511 kts | 88° |
| 2026-04-13 23:35 | 37.18447 | 124.60537 | 36942 ft | 510 kts | 88° |
| 2026-04-13 23:35 | 37.18644 | 124.69434 | 36929 ft | 511 kts | 88° |
| 2026-04-13 23:36 | 37.18832 | 124.78294 | 36930 ft | 509 kts | 88° |
| 2026-04-13 23:36 | 37.19014 | 124.87193 | 36932 ft | 510 kts | 88° |
| 2026-04-13 23:37 | 37.19188 | 124.96055 | 36932 ft | 511 kts | 88° |
| 2026-04-13 23:37 | 37.19355 | 125.04935 | 36934 ft | 510 kts | 88° |
| 2026-04-13 23:38 | 37.19516 | 125.13818 | 36936 ft | 510 kts | 88° |
| 2026-04-13 23:38 | 37.19670 | 125.22678 | 36936 ft | 510 kts | 88° |
| 2026-04-13 23:39 | 37.19817 | 125.31531 | 36937 ft | 511 kts | 88° |
| 2026-04-13 23:39 | 37.19958 | 125.40431 | 36938 ft | 511 kts | 88° |
| 2026-04-13 23:40 | 37.20092 | 125.49283 | 36938 ft | 511 kts | 88° |
| 2026-04-13 23:40 | 37.20218 | 125.58154 | 36939 ft | 510 kts | 88° |
| 2026-04-13 23:41 | 37.20338 | 125.67027 | 36933 ft | 510 kts | 89° |
| 2026-04-13 23:41 | 37.20451 | 125.75925 | 36932 ft | 510 kts | 89° |
| 2026-04-13 23:42 | 37.20557 | 125.84753 | 36934 ft | 511 kts | 89° |
| 2026-04-13 23:42 | 37.20659 | 125.93669 | 36934 ft | 510 kts | 89° |
| 2026-04-13 23:43 | 37.20754 | 126.02534 | 36935 ft | 509 kts | 89° |
| 2026-04-13 23:43 | 37.20842 | 126.11432 | 36936 ft | 511 kts | 89° |
| 2026-04-13 23:44 | 37.20923 | 126.20306 | 36935 ft | 510 kts | 89° |
| 2026-04-13 23:44 | 37.20998 | 126.29192 | 36937 ft | 510 kts | 89° |
| 2026-04-13 23:45 | 37.21066 | 126.38106 | 36937 ft | 510 kts | 89° |
| 2026-04-13 23:45 | 37.21128 | 126.46986 | 36939 ft | 510 kts | 89° |
| 2026-04-13 23:46 | 37.21182 | 126.55898 | 36939 ft | 510 kts | 89° |
| 2026-04-13 23:46 | 37.21228 | 126.64790 | 36942 ft | 511 kts | 89° |
| 2026-04-13 23:47 | 37.21268 | 126.73674 | 36932 ft | 510 kts | 90° |
| 2026-04-13 23:47 | 37.21301 | 126.82510 | 36936 ft | 511 kts | 89° |
| 2026-04-13 23:48 | 37.21502 | 126.91408 | 36935 ft | 509 kts | 82° |
| 2026-04-13 23:48 | 37.23391 | 126.99911 | 36933 ft | 507 kts | 63° |
| 2026-04-13 23:49 | 37.27127 | 127.07274 | 36944 ft | 498 kts | 46° |
| 2026-04-13 23:49 | 37.31693 | 127.13793 | 36968 ft | 498 kts | 44° |
| 2026-04-13 23:50 | 37.36277 | 127.20276 | 36992 ft | 496 kts | 45° |
| 2026-04-13 23:50 | 37.40852 | 127.26750 | 37017 ft | 498 kts | 45° |
| 2026-04-13 23:51 | 37.45430 | 127.33317 | 37011 ft | 499 kts | 49° |
| 2026-04-13 23:51 | 37.48829 | 127.40887 | 37001 ft | 506 kts | 67° |
| 2026-04-13 23:52 | 37.50574 | 127.49523 | 36968 ft | 509 kts | 77° |
| 2026-04-13 23:52 | 37.51982 | 127.58231 | 36987 ft | 508 kts | 77° |
| 2026-04-13 23:53 | 37.53376 | 127.66942 | 37017 ft | 508 kts | 78° |
| 2026-04-13 23:53 | 37.54768 | 127.75692 | 37048 ft | 509 kts | 77° |
| 2026-04-13 23:54 | 37.56146 | 127.84412 | 37037 ft | 508 kts | 78° |
| 2026-04-13 23:54 | 37.57528 | 127.93201 | 37013 ft | 510 kts | 77° |
| 2026-04-13 23:55 | 37.58895 | 128.01950 | 36992 ft | 509 kts | 77° |
| 2026-04-13 23:55 | 37.60256 | 128.10702 | 37036 ft | 509 kts | 77° |
| 2026-04-13 23:56 | 37.61605 | 128.19421 | 37083 ft | 509 kts | 78° |
| 2026-04-13 23:56 | 37.62956 | 128.28203 | 37129 ft | 509 kts | 77° |
| 2026-04-13 23:57 | 37.64292 | 128.36934 | 37157 ft | 510 kts | 77° |
| 2026-04-13 23:57 | 37.65633 | 128.45737 | 37181 ft | 509 kts | 77° |
| 2026-04-13 23:58 | 37.66953 | 128.54448 | 37192 ft | 509 kts | 77° |
| 2026-04-13 23:58 | 37.68272 | 128.63226 | 37186 ft | 509 kts | 77° |
| 2026-04-13 23:59 | 37.68703 | 128.72075 | 37163 ft | 510 kts | 96° |
| 2026-04-13 23:59 | 37.67039 | 128.80734 | 37138 ft | 508 kts | 115° |
| 2026-04-14 00:00 | 37.63693 | 128.88562 | 37092 ft | 506 kts | 123° |
| 2026-04-14 00:00 | 37.60082 | 128.96173 | 37054 ft | 505 kts | 123° |
| 2026-04-14 00:01 | 37.56482 | 129.03703 | 37032 ft | 505 kts | 123° |
| 2026-04-14 00:01 | 37.52853 | 129.11261 | 37016 ft | 504 kts | 123° |
| 2026-04-14 00:02 | 37.49210 | 129.18819 | 36988 ft | 505 kts | 123° |
| 2026-04-14 00:02 | 37.45558 | 129.26372 | 36973 ft | 505 kts | 123° |
| 2026-04-14 00:03 | 37.41920 | 129.33879 | 36982 ft | 503 kts | 123° |
| 2026-04-14 00:03 | 37.38249 | 129.41441 | 36978 ft | 505 kts | 123° |
| 2026-04-14 00:04 | 37.34615 | 129.48909 | 36954 ft | 505 kts | 123° |
| 2026-04-14 00:04 | 37.30949 | 129.56422 | 36943 ft | 504 kts | 123° |
| 2026-04-14 00:05 | 37.27278 | 129.63931 | 36945 ft | 504 kts | 123° |
| 2026-04-14 00:05 | 37.23594 | 129.71449 | 36933 ft | 504 kts | 124° |
| 2026-04-14 00:06 | 37.19928 | 129.78912 | 36933 ft | 505 kts | 124° |
| 2026-04-14 00:06 | 37.16277 | 129.86330 | 36935 ft | 503 kts | 124° |
| 2026-04-14 00:07 | 37.12604 | 129.93774 | 36932 ft | 504 kts | 124° |
| 2026-04-14 00:07 | 37.08895 | 130.01273 | 36932 ft | 504 kts | 124° |
| 2026-04-14 00:08 | 37.05227 | 130.08673 | 36932 ft | 504 kts | 124° |
| 2026-04-14 00:08 | 37.01541 | 130.16095 | 36945 ft | 504 kts | 124° |
| 2026-04-14 00:09 | 36.97840 | 130.23528 | 36934 ft | 505 kts | 124° |
| 2026-04-14 00:09 | 36.94139 | 130.30946 | 36946 ft | 503 kts | 124° |
| 2026-04-14 00:10 | 36.90422 | 130.38379 | 36942 ft | 503 kts | 124° |
| 2026-04-14 00:10 | 36.86717 | 130.45770 | 36967 ft | 505 kts | 124° |
| 2026-04-14 00:11 | 36.82995 | 130.53180 | 36977 ft | 505 kts | 124° |
| 2026-04-14 00:11 | 36.79267 | 130.60588 | 36975 ft | 505 kts | 124° |
| 2026-04-14 00:12 | 36.75547 | 130.67960 | 36969 ft | 505 kts | 126° |
| 2026-04-14 00:12 | 36.71804 | 130.75365 | 36991 ft | 506 kts | 126° |
| 2026-04-14 00:13 | 36.68053 | 130.82770 | 36997 ft | 505 kts | 126° |
| 2026-04-14 00:13 | 36.64310 | 130.90143 | 36999 ft | 504 kts | 126° |
| 2026-04-14 00:14 | 36.60568 | 130.97499 | 37015 ft | 505 kts | 126° |
| 2026-04-14 00:14 | 36.56825 | 131.04839 | 37025 ft | 504 kts | 126° |
| 2026-04-14 00:15 | 36.53051 | 131.12225 | 36991 ft | 505 kts | 126° |
| 2026-04-14 00:15 | 36.49308 | 131.19534 | 37022 ft | 505 kts | 126° |
| 2026-04-14 00:16 | 36.45530 | 131.26895 | 37035 ft | 504 kts | 126° |